Time,TemperatureF,DewpointF,PressureIn,WindDirection,WindDirectionDegrees,WindSpeedMPH,WindSpeedGustMPH,Humidity,HourlyPrecipIn,Conditions,Clouds,dailyrainin,SoftwareType,DateUTC
2013-02-01 00:00:00,-3.0,-3.6,30.81,WNW,292,0.7,3.5,97,0.00,RA,,0.00,WeatherDisplay:10.37,2013-02-01 06:00:00,
2013-02-01 00:01:00,-4.0,-4.4,30.81,WNW,292,0.2,3.5,98,0.00,RA,,0.00,WeatherDisplay:10.37,2013-02-01 06:01:00,
2013-02-01 00:02:00,-4.0,-4.4,30.81,WNW,292,0.1,3.5,98,0.00,RA,,0.00,WeatherDisplay:10.37,2013-02-01 06:02:00,
2013-02-01 00:05:00,-4.0,-4.4,30.81,West,270,0.3,3.5,98,0.00,RA,,0.00,WeatherDisplay:10.37,2013-02-01 06:05:00,
2013-02-01 00:06:00,-4.0,-4.4,30.81,West,270,1.0,1.1,98,0.00,RA,,0.00,WeatherDisplay:10.37,2013-02-01 06:06:00,
2013-02-01 00:07:00,-4.0,-4.4,30.81,West,270,1.2,1.2,98,0.00,RA,,0.00,WeatherDisplay:10.37,2013-02-01 06:07:00,
2013-02-01 00:10:00,-4.0,-4.2,30.81,WSW,247,3.3,6.0,99,0.00,CLR,,0.00,WeatherDisplay:10.37,2013-02-01 06:10:00,
2013-02-01 00:11:00,-4.0,-4.0,30.81,West,270,2.2,5.8,100,0.00,CLR,,0.00,WeatherDisplay:10.37,2013-02-01 06:11:00,
2013-02-01 00:12:00,-4.0,-4.0,30.81,West,270,1.7,5.8,100,0.00,CLR,,0.00,WeatherDisplay:10.37,2013-02-01 06:12:00,
2013-02-01 00:15:00,-4.0,-4.0,30.81,WNW,292,3.5,5.8,100,0.00,CLR,,0.00,WeatherDisplay:10.37,2013-02-01 06:15:00,
2013-02-01 00:17:00,-4.0,-4.0,30.81,West,270,2.9,5.8,100,0.00,CLR,,0.00,WeatherDisplay:10.37,2013-02-01 06:17:00,
2013-02-01 00:20:00,-4.0,-4.0,30.81,WSW,247,3.5,4.6,100,0.00,CLR,,0.00,WeatherDisplay:10.37,2013-02-01 06:20:00,
2013-02-01 00:22:00,-4.0,-4.0,30.81,WSW,247,3.4,4.6,100,0.00,CLR,,0.00,WeatherDisplay:10.37,2013-02-01 06:22:00,
2013-02-01 00:25:00,-4.0,-4.0,30.81,West,270,4.6,5.8,100,0.00,CLR,,0.00,WeatherDisplay:10.37,2013-02-01 06:25:00,
2013-02-01 00:27:00,-4.0,-4.0,30.81,WNW,292,5.7,6.9,100,0.00,CLR,,0.00,WeatherDisplay:10.37,2013-02-01 06:27:00,
2013-02-01 00:30:00,-4.0,-4.2,30.81,NW,315,5.3,6.9,99,0.00,CLR,,0.00,WeatherDisplay:10.37,2013-02-01 06:30:00,
2013-02-01 00:32:00,-4.0,-4.0,30.81,NW,315,5.4,5.8,100,0.00,CLR,,0.00,WeatherDisplay:10.37,2013-02-01 06:32:00,
2013-02-01 00:35:00,-4.0,-4.2,30.82,WNW,292,4.9,5.8,99,0.00,CLR,,0.00,WeatherDisplay:10.37,2013-02-01 06:35:00,
2013-02-01 00:37:00,-4.0,-4.2,30.82,WNW,292,4.1,4.6,99,0.00,CLR,,0.00,WeatherDisplay:10.37,2013-02-01 06:37:00,
2013-02-01 00:40:00,-4.0,-4.2,30.82,WNW,292,3.6,4.6,99,0.00,CLR,,0.00,WeatherDisplay:10.37,2013-02-01 06:40:00,
2013-02-01 00:42:00,-4.0,-4.0,30.82,WNW,292,3.5,5.8,100,0.00,CLR,,0.00,WeatherDisplay:10.37,2013-02-01 06:42:00,
2013-02-01 00:43:00,-4.0,-4.0,30.81,WNW,292,3.2,5.8,100,0.00,CLR,,0.00,WeatherDisplay:10.37,2013-02-01 06:43:00,
2013-02-01 00:45:00,-5.0,-5.0,30.81,WNW,292,1.3,3.5,100,0.00,CLR,,0.00,WeatherDisplay:10.37,2013-02-01 06:45:00,
2013-02-01 00:47:00,-5.0,-5.0,30.81,WNW,292,0.9,3.5,100,0.00,CLR,,0.00,WeatherDisplay:10.37,2013-02-01 06:47:00,
2013-02-01 00:48:00,-5.0,-5.0,30.81,WNW,292,0.8,3.5,100,0.00,CLR,,0.00,WeatherDisplay:10.37,2013-02-01 06:48:00,
2013-02-01 00:50:00,-5.0,-5.0,30.81,WNW,292,1.7,3.5,100,0.00,CLR,,0.00,WeatherDisplay:10.37,2013-02-01 06:50:00,
2013-02-01 00:52:00,-5.0,-5.0,30.81,WNW,292,2.5,4.0,100,0.00,CLR,,0.00,WeatherDisplay:10.37,2013-02-01 06:52:00,
2013-02-01 00:53:00,-5.0,-5.0,30.81,WNW,292,1.3,3.5,100,0.00,CLR,,0.00,WeatherDisplay:10.37,2013-02-01 06:53:00,
2013-02-01 00:55:00,-5.0,-5.0,30.81,WNW,292,0.8,3.5,100,0.00,CLR,,0.00,WeatherDisplay:10.37,2013-02-01 06:55:00,
2013-02-01 00:57:00,-5.0,-5.0,30.81,WNW,292,0.0,1.1,100,0.00,CLR,,0.00,WeatherDisplay:10.37,2013-02-01 06:57:00,
2013-02-01 00:58:00,-5.0,-5.0,30.81,WNW,292,0.0,1.1,100,0.00,CLR,,0.00,WeatherDisplay:10.37,2013-02-01 06:58:00,
2013-02-01 01:00:00,-5.0,-5.0,30.81,WNW,292,0.0,0.0,100,0.00,CLR,,0.00,WeatherDisplay:10.37,2013-02-01 07:00:00,
2013-02-01 01:02:00,-5.0,-5.0,30.81,WNW,292,0.0,0.0,100,0.00,CLR,,0.00,WeatherDisplay:10.37,2013-02-01 07:02:00,
2013-02-01 01:03:00,-5.0,-5.0,30.81,WNW,292,0.0,0.0,100,0.00,CLR,,0.00,WeatherDisplay:10.37,2013-02-01 07:03:00,
2013-02-01 01:05:00,-5.0,-5.0,30.81,WNW,292,0.0,0.0,100,0.00,CLR,,0.00,WeatherDisplay:10.37,2013-02-01 07:05:00,
2013-02-01 01:07:00,-6.0,-6.0,30.81,WNW,292,0.0,0.0,100,0.00,CLR,,0.00,WeatherDisplay:10.37,2013-02-01 07:07:00,
2013-02-01 01:08:00,-6.0,-6.0,30.81,WNW,292,0.0,0.0,100,0.00,CLR,,0.00,WeatherDisplay:10.37,2013-02-01 07:08:00,
2013-02-01 01:10:00,-6.0,-6.0,30.81,WNW,292,0.0,0.0,100,0.00,CLR,,0.00,WeatherDisplay:10.37,2013-02-01 07:10:00,
2013-02-01 01:13:00,-6.0,-6.0,30.81,WNW,292,0.9,3.5,100,0.00,CLR,,0.00,WeatherDisplay:10.37,2013-02-01 07:13:00,
2013-02-01 01:16:00,-6.0,-6.0,30.81,WNW,292,0.0,0.0,100,0.00,CLR,,0.00,WeatherDisplay:10.37,2013-02-01 07:16:00,
2013-02-01 01:18:00,-6.0,-6.0,30.81,WNW,292,0.0,0.0,100,0.00,CLR,,0.00,WeatherDisplay:10.37,2013-02-01 07:18:00,
2013-02-01 01:21:00,-6.0,-6.0,30.81,WNW,292,0.0,0.0,100,0.00,CLR,,0.00,WeatherDisplay:10.37,2013-02-01 07:21:00,
2013-02-01 01:23:00,-6.0,-6.0,30.82,WNW,292,0.0,0.0,100,0.00,CLR,,0.00,WeatherDisplay:10.37,2013-02-01 07:23:00,
2013-02-01 01:26:00,-7.0,-7.0,30.82,WNW,292,0.0,0.0,100,0.00,CLR,,0.00,WeatherDisplay:10.37,2013-02-01 07:26:00,
2013-02-01 01:28:00,-7.0,-7.0,30.82,WNW,292,0.0,0.0,100,0.00,CLR,,0.00,WeatherDisplay:10.37,2013-02-01 07:28:00,
2013-02-01 01:31:00,-7.0,-7.0,30.82,WNW,292,0.0,1.1,100,0.00,CLR,,0.00,WeatherDisplay:10.37,2013-02-01 07:31:00,
2013-02-01 01:33:00,-7.0,-7.0,30.82,WNW,292,0.0,0.0,100,0.00,CLR,,0.00,WeatherDisplay:10.37,2013-02-01 07:33:00,
2013-02-01 01:37:00,-7.0,-7.0,30.82,WNW,292,0.0,0.0,100,0.00,CLR,,0.00,WeatherDisplay:10.37,2013-02-01 07:37:00,
2013-02-01 01:38:00,-7.0,-7.0,30.82,WNW,292,0.0,0.0,100,0.00,CLR,,0.00,WeatherDisplay:10.37,2013-02-01 07:38:00,
2013-02-01 01:42:00,-7.0,-7.0,30.83,WNW,292,0.3,2.3,100,0.00,CLR,,0.00,WeatherDisplay:10.37,2013-02-01 07:42:00,
2013-02-01 01:43:00,-7.0,-7.0,30.83,WNW,292,0.0,1.1,100,0.00,CLR,,0.00,WeatherDisplay:10.37,2013-02-01 07:43:00,
2013-02-01 01:44:00,-7.0,-7.0,30.83,WNW,292,0.1,1.1,100,0.00,CLR,,0.00,WeatherDisplay:10.37,2013-02-01 07:44:00,
2013-02-01 01:47:00,-7.0,-7.0,30.83,WNW,292,0.0,0.0,100,0.00,CLR,,0.00,WeatherDisplay:10.37,2013-02-01 07:47:00,
2013-02-01 01:48:00,-7.0,-7.0,30.83,WNW,292,0.0,0.0,100,0.00,CLR,,0.00,WeatherDisplay:10.37,2013-02-01 07:48:00,
2013-02-01 01:49:00,-8.0,-8.0,30.83,WNW,292,0.0,0.0,100,0.00,CLR,,0.00,WeatherDisplay:10.37,2013-02-01 07:49:00,
2013-02-01 01:52:00,-8.0,-8.0,30.82,WNW,292,0.0,0.0,100,0.00,CLR,,0.00,WeatherDisplay:10.37,2013-02-01 07:52:00,
2013-02-01 01:53:00,-8.0,-8.0,30.82,WNW,292,0.0,0.0,100,0.00,CLR,,0.00,WeatherDisplay:10.37,2013-02-01 07:53:00,
2013-02-01 01:54:00,-8.0,-8.0,30.82,WNW,292,0.0,0.0,100,0.00,CLR,,0.00,WeatherDisplay:10.37,2013-02-01 07:54:00,
2013-02-01 01:55:00,-7.0,-7.0,30.82,WNW,292,0.0,0.0,100,0.00,CLR,,0.00,WeatherDisplay:10.37,2013-02-01 07:55:00,
2013-02-01 01:57:00,-7.0,-7.0,30.82,WNW,292,0.0,0.0,100,0.00,CLR,,0.00,WeatherDisplay:10.37,2013-02-01 07:57:00,
2013-02-01 01:59:00,-7.0,-7.0,30.82,NNW,337,1.0,3.0,100,0.00,CLR,,0.00,WeatherDisplay:10.37,2013-02-01 07:59:00,
2013-02-01 02:00:00,-7.0,-7.0,30.82,NNW,337,2.2,3.5,100,0.00,CLR,,0.00,WeatherDisplay:10.37,2013-02-01 08:00:00,
2013-02-01 02:03:00,-7.0,-7.0,30.81,North,360,3.0,3.5,100,0.00,CLR,,0.00,WeatherDisplay:10.37,2013-02-01 08:03:00,
2013-02-01 02:04:00,-7.0,-7.0,30.81,North,360,2.7,3.5,100,0.00,CLR,,0.00,WeatherDisplay:10.37,2013-02-01 08:04:00,
2013-02-01 02:05:00,-6.0,-6.0,30.81,North,360,2.9,3.5,100,0.00,CLR,,0.00,WeatherDisplay:10.37,2013-02-01 08:05:00,
2013-02-01 02:08:00,-7.0,-7.0,30.81,North,360,0.0,0.0,100,0.00,CLR,,0.00,WeatherDisplay:10.37,2013-02-01 08:08:00,
2013-02-01 02:09:00,-7.0,-7.0,30.81,North,360,0.0,0.0,100,0.00,CLR,,0.00,WeatherDisplay:10.37,2013-02-01 08:09:00,
2013-02-01 02:10:00,-7.0,-7.0,30.81,North,360,0.0,0.0,100,0.00,CLR,,0.00,WeatherDisplay:10.37,2013-02-01 08:10:00,
2013-02-01 02:13:00,-7.0,-7.0,30.81,North,360,0.0,0.0,100,0.00,CLR,,0.00,WeatherDisplay:10.37,2013-02-01 08:13:00,
2013-02-01 02:14:00,-8.0,-8.0,30.81,North,360,0.0,0.0,100,0.00,CLR,,0.00,WeatherDisplay:10.37,2013-02-01 08:14:00,
2013-02-01 02:15:00,-8.0,-8.0,30.81,North,360,0.0,0.0,100,0.00,CLR,,0.00,WeatherDisplay:10.37,2013-02-01 08:15:00,
2013-02-01 02:18:00,-8.0,-8.0,30.81,North,360,0.0,0.0,100,0.00,CLR,,0.00,WeatherDisplay:10.37,2013-02-01 08:18:00,
2013-02-01 02:19:00,-8.0,-8.0,30.81,North,360,0.0,0.0,100,0.00,CLR,,0.00,WeatherDisplay:10.37,2013-02-01 08:19:00,
2013-02-01 02:20:00,-8.0,-8.0,30.81,North,360,0.0,0.0,100,0.00,CLR,,0.00,WeatherDisplay:10.37,2013-02-01 08:20:00,
2013-02-01 02:23:00,-8.0,-8.0,30.81,North,360,0.0,0.0,100,0.00,CLR,,0.00,WeatherDisplay:10.37,2013-02-01 08:23:00,
2013-02-01 02:24:00,-8.0,-8.0,30.81,North,360,0.0,0.0,100,0.00,CLR,,0.00,WeatherDisplay:10.37,2013-02-01 08:24:00,
2013-02-01 02:25:00,-8.0,-8.0,30.81,North,360,0.0,0.0,100,0.00,CLR,,0.00,WeatherDisplay:10.37,2013-02-01 08:25:00,
2013-02-01 02:28:00,-9.0,-9.0,30.81,North,360,0.0,0.0,100,0.00,CLR,,0.00,WeatherDisplay:10.37,2013-02-01 08:28:00,
2013-02-01 02:29:00,-9.0,-9.0,30.81,North,360,0.0,0.0,100,0.00,CLR,,0.00,WeatherDisplay:10.37,2013-02-01 08:29:00,
2013-02-01 02:30:00,-9.0,-9.0,30.81,North,360,0.0,0.0,100,0.00,CLR,,0.00,WeatherDisplay:10.37,2013-02-01 08:30:00,
2013-02-01 02:33:00,-9.0,-9.0,30.80,North,360,2.0,3.5,100,0.00,CLR,,0.00,WeatherDisplay:10.37,2013-02-01 08:33:00,
2013-02-01 02:34:00,-9.0,-9.0,30.80,NW,315,0.6,3.5,100,0.00,CLR,,0.00,WeatherDisplay:10.37,2013-02-01 08:34:00,
2013-02-01 02:35:00,-9.0,-9.0,30.80,North,360,0.8,2.3,100,0.00,CLR,,0.00,WeatherDisplay:10.37,2013-02-01 08:35:00,
2013-02-01 02:36:00,-9.0,-9.0,30.80,North,360,1.0,2.3,100,0.00,CLR,,0.00,WeatherDisplay:10.37,2013-02-01 08:36:00,
2013-02-01 02:38:00,-9.0,-9.0,30.80,North,360,0.0,0.0,100,0.00,CLR,,0.00,WeatherDisplay:10.37,2013-02-01 08:38:00,
2013-02-01 02:39:00,-9.0,-9.0,30.80,North,360,0.0,0.0,100,0.00,CLR,,0.00,WeatherDisplay:10.37,2013-02-01 08:39:00,
2013-02-01 02:40:00,-9.0,-9.0,30.80,North,360,0.0,0.0,100,0.00,CLR,,0.00,WeatherDisplay:10.37,2013-02-01 08:40:00,
2013-02-01 02:41:00,-9.0,-9.0,30.80,North,360,0.0,0.0,100,0.00,CLR,,0.00,WeatherDisplay:10.37,2013-02-01 08:41:00,
2013-02-01 02:44:00,-9.0,-9.0,30.80,North,360,0.0,0.0,100,0.00,CLR,,0.00,WeatherDisplay:10.37,2013-02-01 08:44:00,
2013-02-01 02:46:00,-9.0,-9.0,30.80,North,360,0.0,0.0,100,0.00,CLR,,0.00,WeatherDisplay:10.37,2013-02-01 08:46:00,
2013-02-01 02:49:00,-9.0,-9.0,30.80,WSW,247,1.0,3.5,100,0.00,CLR,,0.00,WeatherDisplay:10.37,2013-02-01 08:49:00,
2013-02-01 02:51:00,-9.0,-9.0,30.80,WSW,247,0.0,0.0,100,0.00,CLR,,0.00,WeatherDisplay:10.37,2013-02-01 08:51:00,
2013-02-01 02:54:00,-9.0,-9.0,30.80,WSW,247,0.0,0.0,100,0.00,CLR,,0.00,WeatherDisplay:10.37,2013-02-01 08:54:00,
2013-02-01 02:55:00,-9.0,-9.0,30.80,WSW,247,0.0,0.0,100,0.00,CLR,,0.00,WeatherDisplay:10.37,2013-02-01 08:55:00,
2013-02-01 02:56:00,-9.0,-9.0,30.80,WSW,247,0.0,0.0,100,0.00,CLR,,0.00,WeatherDisplay:10.37,2013-02-01 08:56:00,
2013-02-01 02:59:00,-9.0,-9.0,30.80,WSW,247,0.0,0.0,100,0.00,CLR,,0.00,WeatherDisplay:10.37,2013-02-01 08:59:00,
2013-02-01 03:00:00,-9.0,-9.0,30.80,WSW,247,0.0,0.0,100,0.00,CLR,,0.00,WeatherDisplay:10.37,2013-02-01 09:00:00,
2013-02-01 03:01:00,-9.0,-9.0,30.80,WSW,247,0.3,1.0,100,0.00,CLR,,0.00,WeatherDisplay:10.37,2013-02-01 09:01:00,
2013-02-01 03:02:00,-9.0,-9.0,30.80,WSW,247,0.7,2.3,100,0.00,CLR,,0.00,WeatherDisplay:10.37,2013-02-01 09:02:00,
2013-02-01 03:04:00,-9.0,-9.0,30.79,WSW,247,0.0,0.0,100,0.00,CLR,,0.00,WeatherDisplay:10.37,2013-02-01 09:04:00,
2013-02-01 03:05:00,-9.0,-9.0,30.79,WSW,247,0.0,0.0,100,0.00,CLR,,0.00,WeatherDisplay:10.37,2013-02-01 09:05:00,
2013-02-01 03:06:00,-9.0,-9.0,30.79,WSW,247,0.0,0.0,100,0.00,CLR,,0.00,WeatherDisplay:10.37,2013-02-01 09:06:00,
2013-02-01 03:07:00,-9.0,-9.0,30.79,WSW,247,0.0,0.0,100,0.00,CLR,,0.00,WeatherDisplay:10.37,2013-02-01 09:07:00,
2013-02-01 03:09:00,-9.0,-9.0,30.79,WSW,247,0.0,0.0,100,0.00,CLR,,0.00,WeatherDisplay:10.37,2013-02-01 09:09:00,
2013-02-01 03:10:00,-9.0,-9.0,30.79,NW,315,0.0,0.0,100,0.00,CLR,,0.00,WeatherDisplay:10.37,2013-02-01 09:10:00,
2013-02-01 03:11:00,-9.0,-9.0,30.79,WSW,247,0.2,2.0,100,0.00,CLR,,0.00,WeatherDisplay:10.37,2013-02-01 09:11:00,
2013-02-01 03:12:00,-9.0,-9.0,30.79,WSW,247,1.7,3.5,100,0.00,CLR,,0.00,WeatherDisplay:10.37,2013-02-01 09:12:00,
2013-02-01 03:14:00,-9.0,-9.0,30.79,WSW,247,1.5,2.3,100,0.00,CLR,,0.00,WeatherDisplay:10.37,2013-02-01 09:14:00,
2013-02-01 03:15:00,-9.0,-9.0,30.79,WSW,247,2.1,3.5,100,0.00,CLR,,0.00,WeatherDisplay:10.37,2013-02-01 09:15:00,
2013-02-01 03:16:00,-9.0,-9.0,30.79,WSW,247,0.3,3.5,100,0.00,CLR,,0.00,WeatherDisplay:10.37,2013-02-01 09:16:00,
2013-02-01 03:17:00,-9.0,-9.0,30.79,WSW,247,0.0,0.0,100,0.00,CLR,,0.00,WeatherDisplay:10.37,2013-02-01 09:17:00,
2013-02-01 03:20:00,-9.0,-9.0,30.79,NNE,22,5.7,6.0,100,0.00,CLR,,0.00,WeatherDisplay:10.37,2013-02-01 09:20:00,
2013-02-01 03:21:00,-9.0,-9.0,30.79,NE,45,4.1,5.8,100,0.00,CLR,,0.00,WeatherDisplay:10.37,2013-02-01 09:21:00,
2013-02-01 03:22:00,-9.0,-9.0,30.79,NE,45,1.6,3.5,100,0.00,CLR,,0.00,WeatherDisplay:10.37,2013-02-01 09:22:00,
2013-02-01 03:25:00,-9.0,-9.0,30.79,NE,45,0.0,0.0,100,0.00,CLR,,0.00,WeatherDisplay:10.37,2013-02-01 09:25:00,
2013-02-01 03:26:00,-9.0,-9.0,30.79,NE,45,1.2,4.0,100,0.00,CLR,,0.00,WeatherDisplay:10.37,2013-02-01 09:26:00,
2013-02-01 03:27:00,-9.0,-9.0,30.79,NE,45,4.3,5.0,100,0.00,CLR,,0.00,WeatherDisplay:10.37,2013-02-01 09:27:00,
2013-02-01 03:30:00,-9.0,-9.0,30.79,NE,45,0.0,3.5,100,0.00,CLR,,0.00,WeatherDisplay:10.37,2013-02-01 09:30:00,
2013-02-01 03:31:00,-9.0,-9.0,30.79,NE,45,0.0,3.5,100,0.00,CLR,,0.00,WeatherDisplay:10.37,2013-02-01 09:31:00,
2013-02-01 03:32:00,-9.0,-9.0,30.79,NE,45,0.0,0.0,100,0.00,CLR,,0.00,WeatherDisplay:10.37,2013-02-01 09:32:00,
2013-02-01 03:35:00,-9.0,-9.0,30.77,NE,45,1.7,3.5,100,0.00,CLR,,0.00,WeatherDisplay:10.37,2013-02-01 09:35:00,
2013-02-01 03:36:00,-9.0,-9.0,30.77,NE,45,0.1,2.3,100,0.00,CLR,,0.00,WeatherDisplay:10.37,2013-02-01 09:36:00,
2013-02-01 03:37:00,-9.0,-9.0,30.77,WSW,247,0.2,3.0,100,0.00,CLR,,0.00,WeatherDisplay:10.37,2013-02-01 09:37:00,
2013-02-01 03:40:00,-9.0,-9.0,30.77,WSW,247,0.0,0.0,100,0.00,CLR,,0.00,WeatherDisplay:10.37,2013-02-01 09:40:00,
2013-02-01 03:41:00,-9.0,-9.0,30.77,WSW,247,0.0,0.0,100,0.00,CLR,,0.00,WeatherDisplay:10.37,2013-02-01 09:41:00,
2013-02-01 03:42:00,-9.0,-9.0,30.77,WSW,247,0.0,0.0,100,0.00,CLR,,0.00,WeatherDisplay:10.37,2013-02-01 09:42:00,
2013-02-01 03:45:00,-10.0,-10.0,30.78,WSW,247,0.0,0.0,100,0.00,CLR,,0.00,WeatherDisplay:10.37,2013-02-01 09:45:00,
2013-02-01 03:46:00,-10.0,-10.0,30.78,WSW,247,0.0,0.0,100,0.00,CLR,,0.00,WeatherDisplay:10.37,2013-02-01 09:46:00,
2013-02-01 03:47:00,-10.0,-10.0,30.78,WSW,247,0.0,0.0,100,0.00,CLR,,0.00,WeatherDisplay:10.37,2013-02-01 09:47:00,
2013-02-01 03:50:00,-10.0,-10.0,30.78,WSW,247,0.0,0.0,100,0.00,CLR,,0.00,WeatherDisplay:10.37,2013-02-01 09:50:00,
2013-02-01 03:51:00,-10.0,-10.0,30.78,WSW,247,0.0,0.0,100,0.00,CLR,,0.00,WeatherDisplay:10.37,2013-02-01 09:51:00,
2013-02-01 03:52:00,-10.0,-10.0,30.78,WSW,247,0.0,0.0,100,0.00,CLR,,0.00,WeatherDisplay:10.37,2013-02-01 09:52:00,
2013-02-01 03:55:00,-9.0,-9.0,30.78,WSW,247,4.7,6.9,100,0.00,CLR,,0.00,WeatherDisplay:10.37,2013-02-01 09:55:00,
2013-02-01 03:56:00,-9.0,-9.0,30.78,SW,225,3.4,4.6,100,0.00,CLR,,0.00,WeatherDisplay:10.37,2013-02-01 09:56:00,
2013-02-01 03:57:00,-9.0,-9.0,30.78,SW,225,2.1,3.5,100,0.00,CLR,,0.00,WeatherDisplay:10.37,2013-02-01 09:57:00,
2013-02-01 04:00:00,-9.0,-9.0,30.78,SW,225,1.4,3.5,100,0.00,CLR,,0.00,WeatherDisplay:10.37,2013-02-01 10:00:00,
2013-02-01 04:02:00,-9.0,-9.0,30.78,SW,225,0.0,0.0,100,0.00,CLR,,0.00,WeatherDisplay:10.37,2013-02-01 10:02:00,
2013-02-01 04:05:00,-9.0,-9.0,30.78,SW,225,0.3,1.1,100,0.00,CLR,,0.00,WeatherDisplay:10.37,2013-02-01 10:05:00,
2013-02-01 04:07:00,-9.0,-9.0,30.78,ENE,67,2.1,3.5,100,0.00,CLR,,0.00,WeatherDisplay:10.37,2013-02-01 10:07:00,
2013-02-01 04:11:00,-9.0,-9.0,30.78,ENE,67,2.4,3.5,100,0.00,CLR,,0.00,WeatherDisplay:10.37,2013-02-01 10:11:00,
2013-02-01 04:12:00,-9.0,-9.0,30.78,ENE,67,0.0,1.1,100,0.00,CLR,,0.00,WeatherDisplay:10.37,2013-02-01 10:12:00,
2013-02-01 04:13:00,-9.0,-9.0,30.79,ENE,67,0.0,1.1,100,0.00,CLR,,0.00,WeatherDisplay:10.37,2013-02-01 10:13:00,
2013-02-01 04:16:00,-8.0,-8.0,30.79,ENE,67,0.2,1.1,100,0.00,CLR,,0.00,WeatherDisplay:10.37,2013-02-01 10:16:00,
2013-02-01 04:17:00,-8.0,-8.0,30.79,ENE,67,0.0,0.0,100,0.00,CLR,,0.00,WeatherDisplay:10.37,2013-02-01 10:17:00,
2013-02-01 04:18:00,-8.0,-8.0,30.79,ENE,67,0.0,0.0,100,0.00,CLR,,0.00,WeatherDisplay:10.37,2013-02-01 10:18:00,
2013-02-01 04:21:00,-8.0,-8.0,30.79,ENE,67,0.0,0.0,100,0.00,CLR,,0.00,WeatherDisplay:10.37,2013-02-01 10:21:00,
2013-02-01 04:22:00,-8.0,-8.0,30.79,ENE,67,0.0,0.0,100,0.00,CLR,,0.00,WeatherDisplay:10.37,2013-02-01 10:22:00,
2013-02-01 04:23:00,-8.0,-8.0,30.79,ENE,67,0.0,0.0,100,0.00,CLR,,0.00,WeatherDisplay:10.37,2013-02-01 10:23:00,
2013-02-01 04:26:00,-8.0,-8.0,30.79,NW,315,0.6,0.0,100,0.00,CLR,,0.00,WeatherDisplay:10.37,2013-02-01 10:26:00,
2013-02-01 04:27:00,-7.0,-7.0,30.79,NW,315,1.3,3.5,100,0.00,CLR,,0.00,WeatherDisplay:10.37,2013-02-01 10:27:00,
2013-02-01 04:28:00,-7.0,-7.0,30.79,WNW,292,2.4,3.5,100,0.00,CLR,,0.00,WeatherDisplay:10.37,2013-02-01 10:28:00,
2013-02-01 04:31:00,-6.0,-6.0,30.79,WSW,247,0.0,0.0,100,0.00,CLR,,0.00,WeatherDisplay:10.37,2013-02-01 10:31:00,
2013-02-01 04:32:00,-6.0,-6.0,30.77,SW,225,0.9,3.5,100,0.00,CLR,,0.00,WeatherDisplay:10.37,2013-02-01 10:32:00,
2013-02-01 04:33:00,-6.0,-6.0,30.77,SW,225,0.0,2.3,100,0.00,CLR,,0.00,WeatherDisplay:10.37,2013-02-01 10:33:00,
2013-02-01 04:36:00,-6.0,-6.0,30.77,SW,225,0.0,0.0,100,0.00,CLR,,0.00,WeatherDisplay:10.37,2013-02-01 10:36:00,
2013-02-01 04:37:00,-5.0,-5.0,30.77,SW,225,0.5,3.0,100,0.00,CLR,,0.00,WeatherDisplay:10.37,2013-02-01 10:37:00,
2013-02-01 04:38:00,-5.0,-5.0,30.77,SSW,202,0.9,3.5,100,0.00,CLR,,0.00,WeatherDisplay:10.37,2013-02-01 10:38:00,
2013-02-01 04:39:00,-5.0,-5.0,30.77,SSW,202,0.1,3.5,100,0.00,CLR,,0.00,WeatherDisplay:10.37,2013-02-01 10:39:00,
2013-02-01 04:41:00,-5.0,-5.0,30.77,SSW,202,0.0,0.0,100,0.00,CLR,,0.00,WeatherDisplay:10.37,2013-02-01 10:41:00,
2013-02-01 04:42:00,-5.0,-5.0,30.76,SSW,202,0.0,0.0,100,0.00,CLR,,0.00,WeatherDisplay:10.37,2013-02-01 10:42:00,
2013-02-01 04:43:00,-5.0,-5.0,30.76,SSW,202,0.0,0.0,100,0.00,CLR,,0.00,WeatherDisplay:10.37,2013-02-01 10:43:00,
2013-02-01 04:44:00,-5.0,-5.0,30.76,SSW,202,0.0,0.0,100,0.00,CLR,,0.00,WeatherDisplay:10.37,2013-02-01 10:44:00,
2013-02-01 04:46:00,-4.0,-4.0,30.76,ESE,112,1.2,3.0,100,0.00,CLR,,0.00,WeatherDisplay:10.37,2013-02-01 10:46:00,
2013-02-01 04:47:00,-4.0,-4.0,30.76,ESE,112,1.7,3.5,100,0.00,CLR,,0.00,WeatherDisplay:10.37,2013-02-01 10:47:00,
2013-02-01 04:48:00,-4.0,-4.0,30.76,ESE,112,0.0,3.5,100,0.00,CLR,,0.00,WeatherDisplay:10.37,2013-02-01 10:48:00,
2013-02-01 04:49:00,-4.0,-4.0,30.76,ESE,112,0.0,0.0,100,0.00,CLR,,0.00,WeatherDisplay:10.37,2013-02-01 10:49:00,
2013-02-01 04:52:00,-4.0,-4.0,30.76,ESE,112,1.6,3.0,100,0.00,CLR,,0.00,WeatherDisplay:10.37,2013-02-01 10:52:00,
2013-02-01 04:54:00,-3.0,-3.0,30.73,ESE,112,1.6,3.5,100,0.00,CLR,,0.00,WeatherDisplay:10.37,2013-02-01 10:54:00,
2013-02-01 04:57:00,-3.0,-3.0,30.73,SSE,157,0.4,2.3,100,0.00,CLR,,0.00,WeatherDisplay:10.37,2013-02-01 10:57:00,
2013-02-01 04:58:00,-3.0,-3.0,30.73,SSE,157,0.0,2.3,100,0.00,CLR,,0.00,WeatherDisplay:10.37,2013-02-01 10:58:00,
2013-02-01 04:59:00,-3.0,-3.0,30.73,SSE,157,1.3,3.5,100,0.00,CLR,,0.00,WeatherDisplay:10.37,2013-02-01 10:59:00,
2013-02-01 05:03:00,-3.0,-3.0,30.75,SSE,157,0.0,1.1,100,0.00,CLR,,0.00,WeatherDisplay:10.37,2013-02-01 11:03:00,
2013-02-01 05:04:00,-3.0,-3.0,30.75,SSE,157,0.0,0.0,100,0.00,CLR,,0.00,WeatherDisplay:10.37,2013-02-01 11:04:00,
2013-02-01 05:05:00,-3.0,-3.0,30.75,SSE,157,0.5,1.0,100,0.00,CLR,,0.00,WeatherDisplay:10.37,2013-02-01 11:05:00,
2013-02-01 05:08:00,-3.0,-3.0,30.75,SSE,157,1.0,2.3,100,0.00,CLR,,0.00,WeatherDisplay:10.37,2013-02-01 11:08:00,
2013-02-01 05:09:00,-3.0,-3.0,30.75,SSE,157,0.0,0.0,100,0.00,CLR,,0.00,WeatherDisplay:10.37,2013-02-01 11:09:00,
2013-02-01 05:10:00,-2.0,-2.0,30.75,SSE,157,0.0,0.0,100,0.00,CLR,,0.00,WeatherDisplay:10.37,2013-02-01 11:10:00,
2013-02-01 05:13:00,-2.0,-2.0,30.74,SSE,157,0.0,3.5,100,0.00,CLR,,0.00,WeatherDisplay:10.37,2013-02-01 11:13:00,
2013-02-01 05:14:00,-2.0,-2.0,30.74,SSW,202,0.4,3.5,100,0.00,CLR,,0.00,WeatherDisplay:10.37,2013-02-01 11:14:00,
2013-02-01 05:15:00,-2.0,-2.0,30.74,WSW,247,1.3,3.5,100,0.00,CLR,,0.00,WeatherDisplay:10.37,2013-02-01 11:15:00,
2013-02-01 05:18:00,-2.0,-2.0,30.74,WSW,247,0.0,0.0,100,0.00,CLR,,0.00,WeatherDisplay:10.37,2013-02-01 11:18:00,
2013-02-01 05:19:00,-2.0,-2.0,30.74,WSW,247,0.2,2.3,100,0.00,CLR,,0.00,WeatherDisplay:10.37,2013-02-01 11:19:00,
2013-02-01 05:20:00,-2.0,-2.0,30.74,WSW,247,1.7,4.6,100,0.00,CLR,,0.00,WeatherDisplay:10.37,2013-02-01 11:20:00,
2013-02-01 05:23:00,-2.0,-2.0,30.74,WSW,247,0.5,4.6,100,0.00,CLR,,0.00,WeatherDisplay:10.37,2013-02-01 11:23:00,
2013-02-01 05:24:00,-1.0,-1.0,30.74,WSW,247,1.8,4.6,100,0.00,CLR,,0.00,WeatherDisplay:10.37,2013-02-01 11:24:00,
2013-02-01 05:25:00,-1.0,-1.0,30.74,South,180,1.7,3.5,100,0.00,CLR,,0.00,WeatherDisplay:10.37,2013-02-01 11:25:00,
2013-02-01 05:28:00,-1.0,-1.0,30.74,South,180,0.1,1.1,100,0.00,CLR,,0.00,WeatherDisplay:10.37,2013-02-01 11:28:00,
2013-02-01 05:29:00,-1.0,-1.0,30.74,South,180,2.8,3.5,100,0.00,CLR,,0.00,WeatherDisplay:10.37,2013-02-01 11:29:00,
2013-02-01 05:30:00,-1.0,-1.0,30.74,South,180,0.2,3.5,100,0.00,CLR,,0.00,WeatherDisplay:10.37,2013-02-01 11:30:00,
2013-02-01 05:33:00,-1.0,-1.0,30.73,South,180,0.4,2.3,100,0.00,CLR,,0.00,WeatherDisplay:10.37,2013-02-01 11:33:00,
2013-02-01 05:34:00,-1.0,-1.0,30.73,South,180,0.0,2.3,100,0.00,CLR,,0.00,WeatherDisplay:10.37,2013-02-01 11:34:00,
2013-02-01 05:36:00,-1.0,-1.0,30.73,South,180,0.3,3.5,100,0.00,CLR,,0.00,WeatherDisplay:10.37,2013-02-01 11:36:00,
2013-02-01 05:38:00,-1.0,-1.0,30.73,South,180,3.1,4.0,100,0.00,CLR,,0.00,WeatherDisplay:10.37,2013-02-01 11:38:00,
2013-02-01 05:39:00,-1.0,-1.0,30.73,South,180,2.8,3.5,100,0.00,CLR,,0.00,WeatherDisplay:10.37,2013-02-01 11:39:00,
2013-02-01 05:41:00,-1.0,-1.0,30.73,SSW,202,1.2,3.5,100,0.00,CLR,,0.00,WeatherDisplay:10.37,2013-02-01 11:41:00,
2013-02-01 05:43:00,-1.0,-1.0,30.73,SSW,202,0.0,0.0,100,0.00,CLR,,0.00,WeatherDisplay:10.37,2013-02-01 11:43:00,
2013-02-01 05:44:00,-1.0,-1.0,30.73,SSW,202,0.0,0.0,100,0.00,CLR,,0.00,WeatherDisplay:10.37,2013-02-01 11:44:00,
2013-02-01 05:46:00,-1.0,-1.0,30.73,SSW,202,0.0,0.0,100,0.00,CLR,,0.00,WeatherDisplay:10.37,2013-02-01 11:46:00,
2013-02-01 05:48:00,-1.0,-1.0,30.73,SSW,202,3.4,6.0,100,0.00,CLR,,0.00,WeatherDisplay:10.37,2013-02-01 11:48:00,
2013-02-01 05:49:00,-1.0,-1.0,30.73,SSW,202,2.2,5.8,100,0.00,CLR,,0.00,WeatherDisplay:10.37,2013-02-01 11:49:00,
2013-02-01 05:50:00,-1.0,-1.0,30.73,SSW,202,1.7,3.5,100,0.00,CLR,,0.00,WeatherDisplay:10.37,2013-02-01 11:50:00,
2013-02-01 05:51:00,-1.0,-1.0,30.73,SSW,202,1.2,3.5,100,0.00,CLR,,0.00,WeatherDisplay:10.37,2013-02-01 11:51:00,
2013-02-01 05:53:00,-1.0,-1.0,30.73,SSW,202,3.1,3.5,100,0.00,CLR,,0.00,WeatherDisplay:10.37,2013-02-01 11:53:00,
2013-02-01 05:54:00,0.0,0.0,30.73,SSW,202,0.7,3.5,100,0.00,CLR,,0.00,WeatherDisplay:10.37,2013-02-01 11:54:00,
2013-02-01 05:55:00,0.0,0.0,30.73,SSE,157,2.4,4.0,100,0.00,CLR,,0.00,WeatherDisplay:10.37,2013-02-01 11:55:00,
2013-02-01 05:56:00,0.0,0.0,30.73,SSE,157,2.3,4.6,100,0.00,CLR,,0.00,WeatherDisplay:10.37,2013-02-01 11:56:00,
2013-02-01 05:58:00,0.0,0.0,30.73,South,180,0.2,2.3,100,0.00,CLR,,0.00,WeatherDisplay:10.37,2013-02-01 11:58:00,
2013-02-01 05:59:00,0.0,0.0,30.73,South,180,1.8,3.5,100,0.00,CLR,,0.00,WeatherDisplay:10.37,2013-02-01 11:59:00,
2013-02-01 06:00:00,0.0,0.0,30.73,South,180,2.0,3.5,100,0.00,CLR,,0.00,WeatherDisplay:10.37,2013-02-01 12:00:00,
2013-02-01 06:01:00,0.0,0.0,30.73,South,180,2.3,3.5,100,0.00,CLR,,0.00,WeatherDisplay:10.37,2013-02-01 12:01:00,
2013-02-01 06:03:00,0.0,0.0,30.72,South,180,0.2,3.5,100,0.00,CLR,,0.00,WeatherDisplay:10.37,2013-02-01 12:03:00,
2013-02-01 06:04:00,0.0,0.0,30.72,South,180,2.3,3.0,100,0.00,CLR,,0.00,WeatherDisplay:10.37,2013-02-01 12:04:00,
2013-02-01 06:05:00,0.0,0.0,30.72,South,180,2.0,4.6,100,0.00,CLR,,0.00,WeatherDisplay:10.37,2013-02-01 12:05:00,
2013-02-01 06:06:00,0.0,0.0,30.72,South,180,2.6,4.0,100,0.00,CLR,,0.00,WeatherDisplay:10.37,2013-02-01 12:06:00,
2013-02-01 06:08:00,0.0,0.0,30.72,South,180,0.6,3.5,100,0.00,CLR,,0.00,WeatherDisplay:10.37,2013-02-01 12:08:00,
2013-02-01 06:09:00,0.0,0.0,30.72,South,180,0.0,3.5,100,0.00,CLR,,0.00,WeatherDisplay:10.37,2013-02-01 12:09:00,
2013-02-01 06:10:00,0.0,0.0,30.72,SSE,157,0.0,1.0,100,0.00,CLR,,0.00,WeatherDisplay:10.37,2013-02-01 12:10:00,
2013-02-01 06:11:00,0.0,0.0,30.72,South,180,2.9,4.6,100,0.00,CLR,,0.00,WeatherDisplay:10.37,2013-02-01 12:11:00,
2013-02-01 06:14:00,0.0,0.0,30.71,SSW,202,3.6,3.6,100,0.00,CLR,,0.00,WeatherDisplay:10.37,2013-02-01 12:14:00,
2013-02-01 06:15:00,0.0,0.0,30.71,SSE,157,3.2,6.9,100,0.00,CLR,,0.00,WeatherDisplay:10.37,2013-02-01 12:15:00,
2013-02-01 06:16:00,0.0,0.0,30.71,SSE,157,1.2,3.5,100,0.00,CLR,,0.00,WeatherDisplay:10.37,2013-02-01 12:16:00,
2013-02-01 06:19:00,0.0,0.0,30.71,South,180,4.1,6.0,100,0.00,CLR,,0.00,WeatherDisplay:10.37,2013-02-01 12:19:00,
2013-02-01 06:20:00,0.0,0.0,30.71,SSE,157,3.4,5.8,100,0.00,CLR,,0.00,WeatherDisplay:10.37,2013-02-01 12:20:00,
2013-02-01 06:21:00,0.0,0.0,30.71,SSW,202,2.1,5.8,100,0.00,CLR,,0.00,WeatherDisplay:10.37,2013-02-01 12:21:00,
2013-02-01 06:24:00,0.0,0.0,30.71,South,180,4.6,6.9,100,0.00,CLR,,0.00,WeatherDisplay:10.37,2013-02-01 12:24:00,
2013-02-01 06:25:00,0.0,0.0,30.71,WSW,247,3.1,5.8,100,0.00,CLR,,0.00,WeatherDisplay:10.37,2013-02-01 12:25:00,
2013-02-01 06:26:00,0.0,0.0,30.71,SE,135,3.5,5.8,100,0.00,CLR,,0.00,WeatherDisplay:10.37,2013-02-01 12:26:00,
2013-02-01 06:29:00,1.0,1.0,30.71,SSW,202,2.2,6.0,100,0.00,CLR,,0.00,WeatherDisplay:10.37,2013-02-01 12:29:00,
2013-02-01 06:30:00,1.0,1.0,30.71,SSW,202,4.6,7.0,100,0.00,CLR,,0.00,WeatherDisplay:10.37,2013-02-01 12:30:00,
2013-02-01 06:31:00,1.0,1.0,30.71,SSW,202,5.8,6.9,100,0.00,CLR,,0.00,WeatherDisplay:10.37,2013-02-01 12:31:00,
2013-02-01 06:34:00,1.0,1.0,30.71,South,180,1.0,4.0,100,0.00,CLR,,0.00,WeatherDisplay:10.37,2013-02-01 12:34:00,
2013-02-01 06:35:00,1.0,1.0,30.71,WSW,247,4.8,8.1,100,0.00,CLR,,0.00,WeatherDisplay:10.37,2013-02-01 12:35:00,
2013-02-01 06:36:00,1.0,1.0,30.71,WSW,247,4.2,5.8,100,0.00,CLR,,0.00,WeatherDisplay:10.37,2013-02-01 12:36:00,
2013-02-01 06:39:00,1.0,0.6,30.71,SSE,157,3.4,6.9,98,0.00,CLR,,0.00,WeatherDisplay:10.37,2013-02-01 12:39:00,
2013-02-01 06:40:00,1.0,0.6,30.71,SSE,157,3.0,5.8,98,0.00,CLR,,0.00,WeatherDisplay:10.37,2013-02-01 12:40:00,
2013-02-01 06:41:00,1.0,0.6,30.71,SSE,157,1.3,5.8,98,0.00,CLR,,0.00,WeatherDisplay:10.37,2013-02-01 12:41:00,
2013-02-01 06:44:00,1.0,0.3,30.71,SSW,202,2.1,4.0,97,0.00,CLR,,0.00,WeatherDisplay:10.37,2013-02-01 12:44:00,
2013-02-01 06:45:00,1.0,0.3,30.71,SSW,202,3.4,4.0,97,0.00,CLR,,0.00,WeatherDisplay:10.37,2013-02-01 12:45:00,
2013-02-01 06:46:00,1.0,0.3,30.71,SSE,157,2.7,4.6,97,0.00,CLR,,0.00,WeatherDisplay:10.37,2013-02-01 12:46:00,
2013-02-01 06:50:00,1.0,0.6,30.71,SSE,157,1.0,3.5,98,0.00,CLR,,0.00,WeatherDisplay:10.37,2013-02-01 12:50:00,
2013-02-01 06:51:00,1.0,0.3,30.71,South,180,3.5,7.0,97,0.00,CLR,,0.00,WeatherDisplay:10.37,2013-02-01 12:51:00,
2013-02-01 06:55:00,1.0,0.3,30.71,SSE,157,3.3,5.8,97,0.00,CLR,,0.00,WeatherDisplay:10.37,2013-02-01 12:55:00,
2013-02-01 06:56:00,1.0,0.3,30.71,SSE,157,2.0,4.6,97,0.00,CLR,,0.00,WeatherDisplay:10.37,2013-02-01 12:56:00,
2013-02-01 07:00:00,1.0,0.1,30.71,SSW,202,1.1,3.5,96,0.00,CLR,,0.00,WeatherDisplay:10.37,2013-02-01 13:00:00,
2013-02-01 07:01:00,2.0,1.1,30.71,SSW,202,4.9,5.8,96,0.00,CLR,,0.00,WeatherDisplay:10.37,2013-02-01 13:01:00,
2013-02-01 07:05:00,2.0,0.9,30.71,SSE,157,4.4,6.9,95,0.00,CLR,,0.00,WeatherDisplay:10.37,2013-02-01 13:05:00,
2013-02-01 07:06:00,2.0,0.9,30.71,SE,135,2.1,6.9,95,0.00,CLR,,0.00,WeatherDisplay:10.37,2013-02-01 13:06:00,
2013-02-01 07:07:00,2.0,0.9,30.71,SE,135,2.1,4.6,95,0.00,CLR,,0.00,WeatherDisplay:10.37,2013-02-01 13:07:00,
2013-02-01 07:10:00,2.0,1.1,30.71,SE,135,2.6,6.9,96,0.00,CLR,,0.00,WeatherDisplay:10.37,2013-02-01 13:10:00,
2013-02-01 07:12:00,2.0,1.1,30.71,SE,135,2.8,3.5,96,0.00,CLR,,0.00,WeatherDisplay:10.37,2013-02-01 13:12:00,
2013-02-01 07:15:00,2.0,0.9,30.69,South,180,4.0,6.9,95,0.00,CLR,,0.00,WeatherDisplay:10.37,2013-02-01 13:15:00,
2013-02-01 07:17:00,2.0,0.9,30.69,South,180,0.5,3.0,95,0.00,CLR,,0.00,WeatherDisplay:10.37,2013-02-01 13:17:00,
2013-02-01 07:20:00,2.0,0.9,30.69,SSE,157,1.0,3.0,95,0.00,CLR,,0.00,WeatherDisplay:10.37,2013-02-01 13:20:00,
2013-02-01 07:21:00,2.0,0.9,30.69,SSE,157,2.3,4.0,95,0.00,CLR,,0.00,WeatherDisplay:10.37,2013-02-01 13:21:00,
2013-02-01 07:22:00,2.0,0.9,30.69,SSE,157,1.4,3.5,95,0.00,CLR,,0.00,WeatherDisplay:10.37,2013-02-01 13:22:00,
2013-02-01 07:25:00,2.0,0.9,30.69,SSE,157,0.0,1.1,95,0.00,CLR,,0.00,WeatherDisplay:10.37,2013-02-01 13:25:00,
2013-02-01 07:26:00,2.0,0.9,30.69,SSE,157,0.8,3.0,95,0.00,CLR,,0.00,WeatherDisplay:10.37,2013-02-01 13:26:00,
2013-02-01 07:27:00,2.0,0.9,30.69,SSE,157,1.8,3.5,95,0.00,CLR,,0.00,WeatherDisplay:10.37,2013-02-01 13:27:00,
2013-02-01 07:30:00,2.0,0.7,30.69,SSE,157,3.0,4.0,94,0.00,CLR,,0.00,WeatherDisplay:10.37,2013-02-01 13:30:00,
2013-02-01 07:31:00,2.0,0.7,30.69,SSE,157,2.2,5.8,94,0.00,CLR,,0.00,WeatherDisplay:10.37,2013-02-01 13:31:00,
2013-02-01 07:32:00,2.0,0.7,30.68,SE,135,2.3,3.5,94,0.00,CLR,,0.00,WeatherDisplay:10.37,2013-02-01 13:32:00,
2013-02-01 07:35:00,2.0,0.7,30.68,ESE,112,2.0,3.5,94,0.00,CLR,,0.00,WeatherDisplay:10.37,2013-02-01 13:35:00,
2013-02-01 07:36:00,2.0,0.7,30.68,ESE,112,2.3,4.6,94,0.00,CLR,,0.00,WeatherDisplay:10.37,2013-02-01 13:36:00,
2013-02-01 07:37:00,2.0,0.7,30.68,ESE,112,0.4,3.5,94,0.00,CLR,,0.00,WeatherDisplay:10.37,2013-02-01 13:37:00,
2013-02-01 07:41:00,2.0,0.7,30.68,South,180,4.6,8.1,94,0.00,CLR,,0.00,WeatherDisplay:10.37,2013-02-01 13:41:00,
2013-02-01 07:43:00,2.0,0.7,30.67,SSW,202,1.8,4.0,94,0.00,CLR,,0.00,WeatherDisplay:10.37,2013-02-01 13:43:00,
2013-02-01 07:46:00,2.0,0.4,30.67,ESE,112,3.9,5.8,93,0.00,CLR,,0.00,WeatherDisplay:10.37,2013-02-01 13:46:00,
2013-02-01 07:48:00,2.0,0.7,30.67,SE,135,1.8,5.0,94,0.00,CLR,,0.00,WeatherDisplay:10.37,2013-02-01 13:48:00,
2013-02-01 07:51:00,2.0,0.4,30.67,SE,135,0.0,0.0,93,0.00,CLR,,0.00,WeatherDisplay:10.37,2013-02-01 13:51:00,
2013-02-01 07:53:00,2.0,0.4,30.69,ESE,112,3.3,5.0,93,0.00,CLR,,0.00,WeatherDisplay:10.37,2013-02-01 13:53:00,
2013-02-01 07:56:00,2.0,0.2,30.69,ESE,112,1.6,3.5,92,0.00,CLR,,0.00,WeatherDisplay:10.37,2013-02-01 13:56:00,
2013-02-01 07:58:00,2.0,0.2,30.69,ESE,112,3.1,3.5,92,0.00,CLR,,0.00,WeatherDisplay:10.37,2013-02-01 13:58:00,
2013-02-01 08:01:00,2.0,0.2,30.69,ESE,112,3.2,5.8,92,0.00,CLR,,0.00,WeatherDisplay:10.37,2013-02-01 14:01:00,
2013-02-01 08:03:00,2.0,0.2,30.69,ESE,112,1.7,4.0,92,0.00,CLR,,0.00,WeatherDisplay:10.37,2013-02-01 14:03:00,
2013-02-01 08:06:00,2.0,0.2,30.69,SSE,157,3.1,5.8,92,0.00,CLR,,0.00,WeatherDisplay:10.37,2013-02-01 14:06:00,
2013-02-01 08:08:00,2.0,0.2,30.69,SSE,157,0.6,3.5,92,0.00,CLR,,0.00,WeatherDisplay:10.37,2013-02-01 14:08:00,
2013-02-01 08:11:00,2.0,0.4,30.69,ESE,112,3.3,6.9,93,0.00,CLR,,0.00,WeatherDisplay:10.37,2013-02-01 14:11:00,
2013-02-01 08:13:00,2.0,0.4,30.68,ESE,112,2.3,4.6,93,0.00,CLR,,0.00,WeatherDisplay:10.37,2013-02-01 14:13:00,
2013-02-01 08:14:00,2.0,0.4,30.68,ESE,112,1.5,4.6,93,0.00,CLR,,0.00,WeatherDisplay:10.37,2013-02-01 14:14:00,
2013-02-01 08:16:00,2.0,0.4,30.68,East,90,3.9,5.8,93,0.00,CLR,,0.00,WeatherDisplay:10.37,2013-02-01 14:16:00,
2013-02-01 08:18:00,2.0,0.4,30.68,ESE,112,3.9,4.6,93,0.00,CLR,,0.00,WeatherDisplay:10.37,2013-02-01 14:18:00,
2013-02-01 08:19:00,2.0,0.4,30.68,ESE,112,2.9,3.5,93,0.00,CLR,,0.00,WeatherDisplay:10.37,2013-02-01 14:19:00,
2013-02-01 08:21:00,3.0,1.2,30.68,East,90,3.6,5.0,92,0.00,CLR,,0.00,WeatherDisplay:10.37,2013-02-01 14:21:00,
2013-02-01 08:22:00,3.0,1.2,30.68,East,90,3.6,4.6,92,0.00,CLR,,0.00,WeatherDisplay:10.37,2013-02-01 14:22:00,
2013-02-01 08:23:00,3.0,1.2,30.68,ESE,112,2.0,8.1,92,0.00,CLR,,0.00,WeatherDisplay:10.37,2013-02-01 14:23:00,
2013-02-01 08:24:00,3.0,1.2,30.68,NW,315,2.5,6.9,92,0.00,CLR,,0.00,WeatherDisplay:10.37,2013-02-01 14:24:00,
2013-02-01 08:27:00,3.0,1.2,30.68,SSE,157,0.6,3.5,92,0.00,CLR,,0.00,WeatherDisplay:10.37,2013-02-01 14:27:00,
2013-02-01 08:28:00,3.0,1.2,30.68,SSE,157,0.0,1.1,92,0.00,CLR,,0.00,WeatherDisplay:10.37,2013-02-01 14:28:00,
2013-02-01 08:29:00,3.0,1.2,30.68,SSE,157,0.4,4.0,92,0.00,CLR,,0.00,WeatherDisplay:10.37,2013-02-01 14:29:00,
2013-02-01 08:32:00,3.0,1.2,30.68,SE,135,2.8,6.9,92,0.00,CLR,,0.00,WeatherDisplay:10.37,2013-02-01 14:32:00,
2013-02-01 08:33:00,3.0,1.0,30.66,ESE,112,5.1,8.1,91,0.00,CLR,,0.00,WeatherDisplay:10.37,2013-02-01 14:33:00,
2013-02-01 08:34:00,3.0,1.0,30.66,SSE,157,3.8,8.1,91,0.00,CLR,,0.00,WeatherDisplay:10.37,2013-02-01 14:34:00,
2013-02-01 08:37:00,3.0,1.0,30.66,South,180,2.1,4.0,91,0.00,CLR,,0.00,WeatherDisplay:10.37,2013-02-01 14:37:00,
2013-02-01 08:38:00,3.0,1.0,30.66,SE,135,4.7,9.2,91,0.00,CLR,,0.00,WeatherDisplay:10.37,2013-02-01 14:38:00,
2013-02-01 08:39:00,3.0,1.0,30.66,SE,135,4.2,9.2,91,0.00,CLR,,0.00,WeatherDisplay:10.37,2013-02-01 14:39:00,
2013-02-01 08:42:00,3.0,0.7,30.66,SE,135,6.5,10.4,90,0.00,CLR,,0.00,WeatherDisplay:10.37,2013-02-01 14:42:00,
2013-02-01 08:43:00,4.0,1.5,30.66,ESE,112,3.4,10.4,89,0.00,CLR,,0.00,WeatherDisplay:10.37,2013-02-01 14:43:00,
2013-02-01 08:44:00,4.0,1.5,30.66,SE,135,4.6,9.2,89,0.00,CLR,,0.00,WeatherDisplay:10.37,2013-02-01 14:44:00,
2013-02-01 08:47:00,4.0,1.5,30.66,SE,135,4.9,8.0,89,0.00,CLR,,0.00,WeatherDisplay:10.37,2013-02-01 14:47:00,
2013-02-01 08:48:00,4.0,1.5,30.66,ENE,67,5.1,9.2,89,0.00,CLR,,0.00,WeatherDisplay:10.37,2013-02-01 14:48:00,
2013-02-01 08:49:00,4.0,1.5,30.66,SE,135,5.1,8.1,89,0.00,CLR,,0.00,WeatherDisplay:10.37,2013-02-01 14:49:00,
2013-02-01 08:52:00,4.0,1.5,30.65,SSE,157,4.6,10.4,89,0.00,CLR,,0.00,WeatherDisplay:10.37,2013-02-01 14:52:00,
2013-02-01 08:53:00,4.0,1.5,30.65,ESE,112,3.4,10.4,89,0.00,CLR,,0.00,WeatherDisplay:10.37,2013-02-01 14:53:00,
2013-02-01 08:54:00,4.0,1.5,30.65,ESE,112,5.5,10.4,89,0.00,CLR,,0.00,WeatherDisplay:10.37,2013-02-01 14:54:00,
2013-02-01 08:57:00,4.0,1.7,30.65,South,180,1.7,5.8,90,0.00,CLR,,0.00,WeatherDisplay:10.37,2013-02-01 14:57:00,
2013-02-01 08:58:00,4.0,1.7,30.65,SE,135,2.3,4.0,90,0.00,CLR,,0.00,WeatherDisplay:10.37,2013-02-01 14:58:00,
2013-02-01 08:59:00,4.0,1.7,30.65,SE,135,3.1,4.0,90,0.00,CLR,,0.00,WeatherDisplay:10.37,2013-02-01 14:59:00,
2013-02-01 09:03:00,4.0,1.5,30.64,SSE,157,4.6,10.4,89,0.00,CLR,,0.00,WeatherDisplay:10.37,2013-02-01 15:03:00,
2013-02-01 09:04:00,4.0,1.2,30.64,SSE,157,7.2,9.2,88,0.00,CLR,,0.00,WeatherDisplay:10.37,2013-02-01 15:04:00,
2013-02-01 09:08:00,5.0,2.5,30.64,SSE,157,4.5,6.9,89,0.00,CLR,,0.00,WeatherDisplay:10.37,2013-02-01 15:08:00,
2013-02-01 09:09:00,5.0,2.2,30.64,South,180,4.6,6.9,88,0.00,CLR,,0.00,WeatherDisplay:10.37,2013-02-01 15:09:00,
2013-02-01 09:13:00,5.0,2.2,30.64,SE,135,5.8,5.8,88,0.00,CLR,,0.00,WeatherDisplay:10.37,2013-02-01 15:13:00,
2013-02-01 09:14:00,5.0,2.2,30.64,SSE,157,3.9,8.1,88,0.00,CLR,,0.00,WeatherDisplay:10.37,2013-02-01 15:14:00,
2013-02-01 09:18:00,5.0,2.2,30.64,SSE,157,5.6,10.4,88,0.00,CLR,,0.00,WeatherDisplay:10.37,2013-02-01 15:18:00,
2013-02-01 09:19:00,5.0,2.2,30.64,SSE,157,2.7,6.9,88,0.00,CLR,,0.00,WeatherDisplay:10.37,2013-02-01 15:19:00,
2013-02-01 09:21:00,5.0,2.2,30.64,SSE,157,3.1,5.8,88,0.00,CLR,,0.00,WeatherDisplay:10.37,2013-02-01 15:21:00,
2013-02-01 09:23:00,6.0,3.0,30.63,ESE,112,2.7,6.9,87,0.00,CLR,,0.00,WeatherDisplay:10.37,2013-02-01 15:23:00,
2013-02-01 09:24:00,6.0,3.0,30.63,SSW,202,1.5,7.0,87,0.00,CLR,,0.00,WeatherDisplay:10.37,2013-02-01 15:24:00,
2013-02-01 09:26:00,6.0,2.7,30.63,South,180,4.6,9.0,86,0.00,CLR,,0.00,WeatherDisplay:10.37,2013-02-01 15:26:00,
2013-02-01 09:28:00,6.0,2.7,30.63,SE,135,2.1,3.5,86,0.00,CLR,,0.00,WeatherDisplay:10.37,2013-02-01 15:28:00,
2013-02-01 09:29:00,6.0,2.7,30.63,SSE,157,2.1,4.6,86,0.00,CLR,,0.00,WeatherDisplay:10.37,2013-02-01 15:29:00,
2013-02-01 09:31:00,6.0,2.5,30.63,SSE,157,5.1,10.4,85,0.00,CLR,,0.00,WeatherDisplay:10.37,2013-02-01 15:31:00,
2013-02-01 09:33:00,6.0,2.2,30.62,South,180,5.7,10.0,84,0.00,CLR,,0.00,WeatherDisplay:10.37,2013-02-01 15:33:00,
2013-02-01 09:34:00,6.0,2.2,30.62,SSE,157,5.4,10.4,84,0.00,CLR,,0.00,WeatherDisplay:10.37,2013-02-01 15:34:00,
2013-02-01 09:36:00,7.0,2.9,30.62,SSE,157,3.8,5.8,83,0.00,CLR,,0.00,WeatherDisplay:10.37,2013-02-01 15:36:00,
2013-02-01 09:38:00,7.0,2.9,30.62,ESE,112,3.8,11.5,83,0.00,CLR,,0.00,WeatherDisplay:10.37,2013-02-01 15:38:00,
2013-02-01 09:39:00,7.0,2.4,30.62,SSE,157,3.6,11.5,81,0.00,CLR,,0.00,WeatherDisplay:10.37,2013-02-01 15:39:00,
2013-02-01 09:41:00,8.0,2.8,30.62,SE,135,6.2,12.7,79,0.00,CLR,,0.00,WeatherDisplay:10.37,2013-02-01 15:41:00,
2013-02-01 09:43:00,8.0,2.6,30.61,SE,135,5.1,9.2,78,0.00,CLR,,0.00,WeatherDisplay:10.37,2013-02-01 15:43:00,
2013-02-01 09:44:00,8.0,2.6,30.61,SSE,157,5.7,8.1,78,0.00,CLR,,0.00,WeatherDisplay:10.37,2013-02-01 15:44:00,
2013-02-01 09:46:00,9.0,3.5,30.61,SSE,157,3.7,9.0,78,0.00,CLR,,0.00,WeatherDisplay:10.37,2013-02-01 15:46:00,
2013-02-01 09:48:00,9.0,3.0,30.61,South,180,7.5,12.7,76,0.00,CLR,,0.00,WeatherDisplay:10.37,2013-02-01 15:48:00,
2013-02-01 09:49:00,9.0,3.0,30.61,SSW,202,6.5,13.0,76,0.00,CLR,,0.00,WeatherDisplay:10.37,2013-02-01 15:49:00,
2013-02-01 09:50:00,9.0,3.0,30.61,SSE,157,9.5,10.0,76,0.00,CLR,,0.00,WeatherDisplay:10.37,2013-02-01 15:50:00,
2013-02-01 09:52:00,9.0,3.5,30.61,SW,225,4.0,9.0,78,0.00,CLR,,0.00,WeatherDisplay:10.37,2013-02-01 15:52:00,
2013-02-01 09:53:00,10.0,3.1,30.59,SSW,202,5.1,10.0,73,0.00,CLR,,0.00,WeatherDisplay:10.37,2013-02-01 15:53:00,
2013-02-01 09:54:00,9.0,2.1,30.59,South,180,8.4,11.5,73,0.00,CLR,,0.00,WeatherDisplay:10.37,2013-02-01 15:54:00,
2013-02-01 09:55:00,9.0,2.1,30.59,SSW,202,7.6,11.5,73,0.00,CLR,,0.00,WeatherDisplay:10.37,2013-02-01 15:55:00,
2013-02-01 09:57:00,9.0,2.1,30.59,SSW,202,9.1,11.5,73,0.00,CLR,,0.00,WeatherDisplay:10.37,2013-02-01 15:57:00,
2013-02-01 09:58:00,9.0,2.1,30.59,SE,135,6.4,11.5,73,0.00,CLR,,0.00,WeatherDisplay:10.37,2013-02-01 15:58:00,
2013-02-01 09:59:00,9.0,2.1,30.59,SSW,202,9.3,14.0,73,0.00,CLR,,0.00,WeatherDisplay:10.37,2013-02-01 15:59:00,
2013-02-01 10:00:00,9.0,2.1,30.59,SSE,157,11.0,17.3,73,0.00,CLR,,0.00,WeatherDisplay:10.37,2013-02-01 16:00:00,
2013-02-01 10:02:00,9.0,2.4,30.59,South,180,6.3,11.5,74,0.00,CLR,,0.00,WeatherDisplay:10.37,2013-02-01 16:02:00,
2013-02-01 10:03:00,9.0,2.7,30.57,SSE,157,5.2,9.2,75,0.00,CLR,,0.00,WeatherDisplay:10.37,2013-02-01 16:03:00,
2013-02-01 10:04:00,10.0,3.1,30.57,SSW,202,5.5,9.2,73,0.00,CLR,,0.00,WeatherDisplay:10.37,2013-02-01 16:04:00,
2013-02-01 10:05:00,10.0,2.8,30.57,SSE,157,6.9,15.0,72,0.00,CLR,,0.00,WeatherDisplay:10.37,2013-02-01 16:05:00,
2013-02-01 10:07:00,10.0,2.8,30.57,SSE,157,5.4,8.1,72,0.00,CLR,,0.00,WeatherDisplay:10.37,2013-02-01 16:07:00,
2013-02-01 10:08:00,10.0,2.8,30.57,SSE,157,5.7,9.2,72,0.00,CLR,,0.00,WeatherDisplay:10.37,2013-02-01 16:08:00,
2013-02-01 10:09:00,10.0,2.5,30.57,SSE,157,7.4,11.5,71,0.00,CLR,,0.00,WeatherDisplay:10.37,2013-02-01 16:09:00,
2013-02-01 10:10:00,10.0,2.5,30.57,SSE,157,5.5,10.4,71,0.00,CLR,,0.00,WeatherDisplay:10.37,2013-02-01 16:10:00,
2013-02-01 10:12:00,11.0,3.7,30.57,SSE,157,1.4,3.5,72,0.00,CLR,,0.00,WeatherDisplay:10.37,2013-02-01 16:12:00,
2013-02-01 10:13:00,11.0,3.4,30.57,SSW,202,4.9,5.8,71,0.00,CLR,,0.00,WeatherDisplay:10.37,2013-02-01 16:13:00,
2013-02-01 10:14:00,11.0,3.4,30.57,SSE,157,4.3,10.4,71,0.00,CLR,,0.00,WeatherDisplay:10.37,2013-02-01 16:14:00,
2013-02-01 10:15:00,11.0,3.1,30.57,SSE,157,4.0,8.1,70,0.00,CLR,,0.00,WeatherDisplay:10.37,2013-02-01 16:15:00,
2013-02-01 10:17:00,11.0,2.5,30.57,SSE,157,7.6,12.7,68,0.00,CLR,,0.00,WeatherDisplay:10.37,2013-02-01 16:17:00,
2013-02-01 10:18:00,11.0,2.5,30.57,NW,315,5.5,12.7,68,0.00,CLR,,0.00,WeatherDisplay:10.37,2013-02-01 16:18:00,
2013-02-01 10:20:00,11.0,2.8,30.57,SSE,157,5.6,13.8,69,0.00,CLR,,0.00,WeatherDisplay:10.37,2013-02-01 16:20:00,
2013-02-01 10:22:00,11.0,2.8,30.56,SSE,157,10.6,15.0,69,0.00,CLR,,0.00,WeatherDisplay:10.37,2013-02-01 16:22:00,
2013-02-01 10:24:00,11.0,2.8,30.56,SSE,157,10.1,15.0,69,0.00,CLR,,0.00,WeatherDisplay:10.37,2013-02-01 16:24:00,
2013-02-01 10:25:00,11.0,3.1,30.56,SSW,202,7.3,16.1,70,0.00,CLR,,0.00,WeatherDisplay:10.37,2013-02-01 16:25:00,
2013-02-01 10:26:00,11.0,3.1,30.56,South,180,9.3,11.5,70,0.00,CLR,,0.00,WeatherDisplay:10.37,2013-02-01 16:26:00,
2013-02-01 10:27:00,11.0,3.4,30.56,SSW,202,7.5,10.0,71,0.00,CLR,,0.00,WeatherDisplay:10.37,2013-02-01 16:27:00,
2013-02-01 10:29:00,11.0,3.1,30.56,SSE,157,7.8,12.7,70,0.00,CLR,,0.00,WeatherDisplay:10.37,2013-02-01 16:29:00,
2013-02-01 10:31:00,11.0,3.7,30.56,SSE,157,3.6,6.9,72,0.00,CLR,,0.00,WeatherDisplay:10.37,2013-02-01 16:31:00,
2013-02-01 10:32:00,12.0,4.4,30.56,SSW,202,4.3,9.0,71,0.00,CLR,,0.00,WeatherDisplay:10.37,2013-02-01 16:32:00,
2013-02-01 10:34:00,12.0,3.5,30.56,SSW,202,8.2,11.5,68,0.00,CLR,,0.00,WeatherDisplay:10.37,2013-02-01 16:34:00,
2013-02-01 10:36:00,12.0,3.1,30.56,South,180,10.3,11.5,67,0.00,CLR,,0.00,WeatherDisplay:10.37,2013-02-01 16:36:00,
2013-02-01 10:37:00,11.0,2.5,30.56,South,180,11.5,19.6,68,0.00,CLR,,0.00,WeatherDisplay:10.37,2013-02-01 16:37:00,
2013-02-01 10:39:00,11.0,2.8,30.56,SSW,202,8.0,11.5,69,0.00,CLR,,0.00,WeatherDisplay:10.37,2013-02-01 16:39:00,
2013-02-01 10:41:00,11.0,3.1,30.56,South,180,7.8,12.7,70,0.00,CLR,,0.00,WeatherDisplay:10.37,2013-02-01 16:41:00,
2013-02-01 10:43:00,12.0,4.4,30.55,SSE,157,6.6,10.4,71,0.00,CLR,,0.00,WeatherDisplay:10.37,2013-02-01 16:43:00,
2013-02-01 10:44:00,12.0,4.7,30.55,ESE,112,4.9,9.0,72,0.00,CLR,,0.00,WeatherDisplay:10.37,2013-02-01 16:44:00,
2013-02-01 10:46:00,12.0,3.8,30.55,SSE,157,7.5,16.1,69,0.00,CLR,,0.00,WeatherDisplay:10.37,2013-02-01 16:46:00,
2013-02-01 10:48:00,12.0,4.1,30.55,SSE,157,5.1,10.4,70,0.00,CLR,,0.00,WeatherDisplay:10.37,2013-02-01 16:48:00,
2013-02-01 10:49:00,13.0,4.7,30.55,SE,135,4.8,8.0,69,0.00,CLR,,0.00,WeatherDisplay:10.37,2013-02-01 16:49:00,
2013-02-01 10:51:00,13.0,4.4,30.55,SE,135,8.1,11.5,68,0.00,CLR,,0.00,WeatherDisplay:10.37,2013-02-01 16:51:00,
2013-02-01 10:53:00,13.0,4.4,30.54,South,180,5.2,10.4,68,0.00,CLR,,0.00,WeatherDisplay:10.37,2013-02-01 16:53:00,
2013-02-01 10:54:00,13.0,4.4,30.54,SE,135,6.3,11.5,68,0.00,CLR,,0.00,WeatherDisplay:10.37,2013-02-01 16:54:00,
2013-02-01 10:56:00,13.0,4.4,30.54,ESE,112,5.2,8.1,68,0.00,CLR,,0.00,WeatherDisplay:10.37,2013-02-01 16:56:00,
2013-02-01 10:58:00,13.0,4.4,30.54,South,180,3.8,9.2,68,0.00,CLR,,0.00,WeatherDisplay:10.37,2013-02-01 16:58:00,
2013-02-01 10:59:00,13.0,3.8,30.54,SSE,157,7.4,12.0,66,0.00,CLR,,0.00,WeatherDisplay:10.37,2013-02-01 16:59:00,
2013-02-01 11:01:00,13.0,3.8,30.54,WSW,247,5.4,11.5,66,0.00,CLR,,0.00,WeatherDisplay:10.37,2013-02-01 17:01:00,
2013-02-01 11:03:00,13.0,4.1,30.54,SSW,202,7.3,10.4,67,0.00,CLR,,0.00,WeatherDisplay:10.37,2013-02-01 17:03:00,
2013-02-01 11:04:00,13.0,4.4,30.54,SSE,157,3.7,8.1,68,0.00,CLR,,0.00,WeatherDisplay:10.37,2013-02-01 17:04:00,
2013-02-01 11:06:00,13.0,4.1,30.54,SSW,202,6.4,11.5,67,0.00,CLR,,0.00,WeatherDisplay:10.37,2013-02-01 17:06:00,
2013-02-01 11:08:00,13.0,4.1,30.54,ESE,112,7.9,11.5,67,0.00,CLR,,0.00,WeatherDisplay:10.37,2013-02-01 17:08:00,
2013-02-01 11:09:00,13.0,4.4,30.54,SSE,157,6.8,11.5,68,0.00,CLR,,0.00,WeatherDisplay:10.37,2013-02-01 17:09:00,
2013-02-01 11:11:00,13.0,4.4,30.54,SSE,157,5.5,11.5,68,0.00,CLR,,0.00,WeatherDisplay:10.37,2013-02-01 17:11:00,
2013-02-01 11:13:00,14.0,5.1,30.53,SSE,157,5.1,7.0,67,0.00,CLR,,0.00,WeatherDisplay:10.37,2013-02-01 17:13:00,
2013-02-01 11:14:00,14.0,5.1,30.53,South,180,8.5,11.5,67,0.00,CLR,,0.00,WeatherDisplay:10.37,2013-02-01 17:14:00,
2013-02-01 11:16:00,14.0,5.4,30.53,South,180,2.7,9.2,68,0.00,CLR,,0.00,WeatherDisplay:10.37,2013-02-01 17:16:00,
2013-02-01 11:18:00,14.0,4.7,30.53,South,180,8.5,11.5,66,0.00,CLR,,0.00,WeatherDisplay:10.37,2013-02-01 17:18:00,
2013-02-01 11:19:00,14.0,5.4,30.53,SSW,202,7.1,16.1,68,0.00,CLR,,0.00,WeatherDisplay:10.37,2013-02-01 17:19:00,
2013-02-01 11:21:00,14.0,5.1,30.53,South,180,8.5,13.8,67,0.00,CLR,,0.00,WeatherDisplay:10.37,2013-02-01 17:21:00,
2013-02-01 11:23:00,13.0,4.7,30.52,South,180,5.4,12.7,69,0.00,CLR,,0.00,WeatherDisplay:10.37,2013-02-01 17:23:00,
2013-02-01 11:25:00,13.0,4.4,30.52,SSE,157,6.1,12.7,68,0.00,CLR,,0.00,WeatherDisplay:10.37,2013-02-01 17:25:00,
2013-02-01 11:26:00,13.0,5.0,30.52,SSE,157,6.0,10.0,70,0.00,CLR,,0.00,WeatherDisplay:10.37,2013-02-01 17:26:00,
2013-02-01 11:28:00,13.0,5.7,30.52,SE,135,4.8,10.4,72,0.00,CLR,,0.00,WeatherDisplay:10.37,2013-02-01 17:28:00,
2013-02-01 11:30:00,13.0,6.0,30.52,SSE,157,5.8,10.4,73,0.00,CLR,,0.00,WeatherDisplay:10.37,2013-02-01 17:30:00,
2013-02-01 11:31:00,13.0,5.7,30.52,SSE,157,5.3,10.4,72,0.00,CLR,,0.00,WeatherDisplay:10.37,2013-02-01 17:31:00,
2013-02-01 11:34:00,13.0,6.0,30.52,SW,225,6.6,10.4,73,0.00,CLR,,0.00,WeatherDisplay:10.37,2013-02-01 17:34:00,
2013-02-01 11:35:00,13.0,5.4,30.52,SSW,202,7.3,9.2,71,0.00,CLR,,0.00,WeatherDisplay:10.37,2013-02-01 17:35:00,
2013-02-01 11:36:00,13.0,6.0,30.52,WSW,247,4.3,9.2,73,0.00,CLR,,0.00,WeatherDisplay:10.37,2013-02-01 17:36:00,
2013-02-01 11:37:00,13.0,6.0,30.52,South,180,5.2,11.0,73,0.00,CLR,,0.00,WeatherDisplay:10.37,2013-02-01 17:37:00,
2013-02-01 11:39:00,13.0,5.4,30.52,SSE,157,8.2,12.7,71,0.00,CLR,,0.00,WeatherDisplay:10.37,2013-02-01 17:39:00,
2013-02-01 11:40:00,13.0,5.7,30.52,SSW,202,3.3,11.5,72,0.00,CLR,,0.00,WeatherDisplay:10.37,2013-02-01 17:40:00,
2013-02-01 11:41:00,13.0,6.3,30.52,South,180,4.3,6.9,74,0.00,CLR,,0.00,WeatherDisplay:10.37,2013-02-01 17:41:00,
2013-02-01 11:42:00,13.0,6.3,30.52,ESE,112,3.5,6.9,74,0.00,CLR,,0.00,WeatherDisplay:10.37,2013-02-01 17:42:00,
2013-02-01 11:44:00,13.0,6.3,30.53,SSE,157,4.7,8.1,74,0.00,CLR,,0.00,WeatherDisplay:10.37,2013-02-01 17:44:00,
2013-02-01 11:45:00,13.0,6.3,30.53,ESE,112,2.9,6.9,74,0.00,CLR,,0.00,WeatherDisplay:10.37,2013-02-01 17:45:00,
2013-02-01 11:46:00,13.0,6.0,30.53,South,180,6.8,12.7,73,0.00,CLR,,0.00,WeatherDisplay:10.37,2013-02-01 17:46:00,
2013-02-01 11:47:00,13.0,6.0,30.53,SSE,157,6.3,11.5,73,0.00,CLR,,0.00,WeatherDisplay:10.37,2013-02-01 17:47:00,
2013-02-01 11:49:00,13.0,6.3,30.53,SE,135,5.7,11.5,74,0.00,CLR,,0.00,WeatherDisplay:10.37,2013-02-01 17:49:00,
2013-02-01 11:50:00,13.0,6.3,30.53,SSW,202,4.3,6.9,74,0.00,CLR,,0.00,WeatherDisplay:10.37,2013-02-01 17:50:00,
2013-02-01 11:51:00,13.0,6.9,30.53,SSW,202,4.6,6.9,76,0.00,CLR,,0.00,WeatherDisplay:10.37,2013-02-01 17:51:00,
2013-02-01 11:52:00,14.0,7.5,30.52,SSW,202,3.9,4.6,75,0.00,CLR,,0.00,WeatherDisplay:10.37,2013-02-01 17:52:00,
2013-02-01 11:54:00,14.0,7.2,30.52,South,180,5.2,11.5,74,0.00,CLR,,0.00,WeatherDisplay:10.37,2013-02-01 17:54:00,
2013-02-01 11:55:00,14.0,7.2,30.52,NE,45,5.6,10.4,74,0.00,CLR,,0.00,WeatherDisplay:10.37,2013-02-01 17:55:00,
2013-02-01 11:57:00,13.0,6.0,30.52,SSW,202,8.7,11.5,73,0.00,CLR,,0.00,WeatherDisplay:10.37,2013-02-01 17:57:00,
2013-02-01 11:59:00,13.0,6.3,30.52,SSW,202,6.6,12.7,74,0.00,CLR,,0.00,WeatherDisplay:10.37,2013-02-01 17:59:00,
2013-02-01 12:01:00,13.0,6.6,30.52,SSE,157,6.5,10.4,75,0.00,CLR,,0.00,WeatherDisplay:10.37,2013-02-01 18:01:00,
2013-02-01 12:02:00,13.0,6.3,30.52,SSW,202,8.2,10.4,74,0.00,CLR,,0.00,WeatherDisplay:10.37,2013-02-01 18:02:00,
2013-02-01 12:05:00,13.0,6.9,30.51,SW,225,5.5,8.1,76,0.00,CLR,,0.00,WeatherDisplay:10.37,2013-02-01 18:05:00,
2013-02-01 12:06:00,13.0,6.6,30.51,South,180,7.2,11.5,75,0.00,CLR,,0.00,WeatherDisplay:10.37,2013-02-01 18:06:00,
2013-02-01 12:07:00,13.0,6.3,30.51,SSW,202,8.3,11.5,74,0.00,CLR,,0.00,WeatherDisplay:10.37,2013-02-01 18:07:00,
2013-02-01 12:10:00,13.0,7.1,30.51,SW,225,6.7,10.4,77,0.00,CLR,,0.00,WeatherDisplay:10.37,2013-02-01 18:10:00,
2013-02-01 12:11:00,13.0,7.1,30.51,South,180,7.3,11.5,77,0.00,CLR,,0.00,WeatherDisplay:10.37,2013-02-01 18:11:00,
2013-02-01 12:12:00,13.0,6.9,30.50,ESE,112,5.5,10.4,76,0.00,CLR,,0.00,WeatherDisplay:10.37,2013-02-01 18:12:00,
2013-02-01 12:13:00,13.0,6.9,30.50,South,180,6.7,10.4,76,0.00,CLR,,0.00,WeatherDisplay:10.37,2013-02-01 18:13:00,
2013-02-01 12:16:00,13.0,6.9,30.50,ESE,112,7.5,10.4,76,0.00,CLR,,0.00,WeatherDisplay:10.37,2013-02-01 18:16:00,
2013-02-01 12:17:00,12.0,5.9,30.50,SSW,202,9.6,15.0,76,0.00,CLR,,0.00,WeatherDisplay:10.37,2013-02-01 18:17:00,
2013-02-01 12:18:00,12.0,5.9,30.50,South,180,9.6,15.0,76,0.00,CLR,,0.00,WeatherDisplay:10.37,2013-02-01 18:18:00,
2013-02-01 12:21:00,12.0,6.5,30.50,South,180,7.2,11.5,78,0.00,CLR,,0.00,WeatherDisplay:10.37,2013-02-01 18:21:00,
2013-02-01 12:22:00,13.0,7.4,30.49,WSW,247,6.6,11.0,78,0.00,CLR,,0.00,WeatherDisplay:10.37,2013-02-01 18:22:00,
2013-02-01 12:23:00,13.0,7.4,30.49,South,180,10.4,19.0,78,0.00,CLR,,0.00,WeatherDisplay:10.37,2013-02-01 18:23:00,
2013-02-01 12:26:00,12.0,6.5,30.49,SSW,202,8.9,17.3,78,0.00,CLR,,0.00,WeatherDisplay:10.37,2013-02-01 18:26:00,
2013-02-01 12:27:00,13.0,7.7,30.49,South,180,8.5,19.6,79,0.00,CLR,,0.00,WeatherDisplay:10.37,2013-02-01 18:27:00,
2013-02-01 12:28:00,13.0,7.7,30.49,South,180,5.3,10.4,79,0.00,CLR,,0.00,WeatherDisplay:10.37,2013-02-01 18:28:00,
2013-02-01 12:31:00,13.0,8.0,30.49,SSE,157,5.4,12.0,80,0.00,CLR,,0.00,WeatherDisplay:10.37,2013-02-01 18:31:00,
2013-02-01 12:32:00,13.0,8.0,30.49,South,180,7.5,11.5,80,0.00,CLR,,0.00,WeatherDisplay:10.37,2013-02-01 18:32:00,
2013-02-01 12:33:00,13.0,7.4,30.47,SSW,202,10.5,18.4,78,0.00,CLR,,0.00,WeatherDisplay:10.37,2013-02-01 18:33:00,
2013-02-01 12:36:00,13.0,7.4,30.47,NW,315,6.6,15.0,78,0.00,CLR,,0.00,WeatherDisplay:10.37,2013-02-01 18:36:00,
2013-02-01 12:37:00,13.0,7.4,30.47,SSE,157,4.3,15.0,78,0.00,CLR,,0.00,WeatherDisplay:10.37,2013-02-01 18:37:00,
2013-02-01 12:38:00,13.0,7.4,30.47,SSE,157,7.6,11.5,78,0.00,CLR,,0.00,WeatherDisplay:10.37,2013-02-01 18:38:00,
2013-02-01 12:42:00,13.0,7.7,30.47,SSE,157,8.2,19.6,79,0.00,CLR,,0.00,WeatherDisplay:10.37,2013-02-01 18:42:00,
2013-02-01 12:43:00,13.0,7.4,30.46,SSE,157,13.2,17.0,78,0.00,CLR,,0.00,WeatherDisplay:10.37,2013-02-01 18:43:00,
2013-02-01 12:47:00,14.0,8.7,30.46,South,180,7.4,10.4,79,0.00,CLR,,0.00,WeatherDisplay:10.37,2013-02-01 18:47:00,
2013-02-01 12:48:00,14.0,8.7,30.46,SSE,157,10.1,15.0,79,0.00,CLR,,0.00,WeatherDisplay:10.37,2013-02-01 18:48:00,
2013-02-01 12:52:00,14.0,8.7,30.46,SW,225,7.6,12.7,79,0.00,CLR,,0.00,WeatherDisplay:10.37,2013-02-01 18:52:00,
2013-02-01 12:53:00,14.0,8.4,30.45,SSE,157,6.0,9.0,78,0.00,CLR,,0.00,WeatherDisplay:10.37,2013-02-01 18:53:00,
2013-02-01 12:54:00,14.0,8.4,30.45,SSW,202,7.6,8.1,78,0.00,CLR,,0.00,WeatherDisplay:10.37,2013-02-01 18:54:00,
2013-02-01 12:57:00,14.0,8.4,30.45,South,180,11.2,17.0,78,0.00,CLR,,0.00,WeatherDisplay:10.37,2013-02-01 18:57:00,
2013-02-01 12:58:00,14.0,8.7,30.45,SSE,157,8.4,17.3,79,0.00,CLR,,0.00,WeatherDisplay:10.37,2013-02-01 18:58:00,
2013-02-01 12:59:00,14.0,8.7,30.45,NW,315,7.5,13.8,79,0.00,CLR,,0.00,WeatherDisplay:10.37,2013-02-01 18:59:00,
2013-02-01 13:02:00,15.0,9.9,30.45,SSE,157,8.7,15.0,80,0.00,CLR,,0.00,WeatherDisplay:10.37,2013-02-01 19:02:00,
2013-02-01 13:04:00,15.0,9.7,30.44,SSW,202,6.4,13.8,79,0.00,CLR,,0.00,WeatherDisplay:10.37,2013-02-01 19:04:00,
2013-02-01 13:07:00,15.0,9.1,30.44,SSW,202,9.1,20.7,77,0.00,CLR,,0.00,WeatherDisplay:10.37,2013-02-01 19:07:00,
2013-02-01 13:09:00,16.0,10.9,30.44,ENE,67,3.5,6.9,80,0.00,CLR,,0.00,WeatherDisplay:10.37,2013-02-01 19:09:00,
2013-02-01 13:12:00,17.0,11.0,30.43,SSW,202,5.1,8.1,77,0.00,CLR,,0.00,WeatherDisplay:10.37,2013-02-01 19:12:00,
2013-02-01 13:14:00,17.0,10.7,30.43,SSW,202,6.4,10.4,76,0.00,CLR,,0.00,WeatherDisplay:10.37,2013-02-01 19:14:00,
2013-02-01 13:17:00,17.0,10.7,30.43,SSE,157,4.8,11.5,76,0.00,CLR,,0.00,WeatherDisplay:10.37,2013-02-01 19:17:00,
2013-02-01 13:19:00,17.0,10.7,30.43,SSE,157,7.5,11.5,76,0.00,CLR,,0.00,WeatherDisplay:10.37,2013-02-01 19:19:00,
2013-02-01 13:20:00,17.0,10.7,30.43,SSW,202,6.9,11.5,76,0.00,CLR,,0.00,WeatherDisplay:10.37,2013-02-01 19:20:00,
2013-02-01 13:22:00,18.0,11.4,30.43,South,180,8.1,10.0,75,0.00,CLR,,0.00,WeatherDisplay:10.37,2013-02-01 19:22:00,
2013-02-01 13:24:00,18.0,11.4,30.43,SSW,202,8.7,18.4,75,0.00,CLR,,0.00,WeatherDisplay:10.37,2013-02-01 19:24:00,
2013-02-01 13:25:00,18.0,11.4,30.43,SW,225,8.4,11.5,75,0.00,CLR,,0.00,WeatherDisplay:10.37,2013-02-01 19:25:00,
2013-02-01 13:27:00,18.0,11.7,30.43,SSE,157,6.4,17.3,76,0.00,CLR,,0.00,WeatherDisplay:10.37,2013-02-01 19:27:00,
2013-02-01 13:29:00,18.0,11.4,30.43,SSW,202,9.6,17.3,75,0.00,CLR,,0.00,WeatherDisplay:10.37,2013-02-01 19:29:00,
2013-02-01 13:30:00,18.0,11.7,30.43,SSE,157,7.4,15.0,76,0.00,CLR,,0.00,WeatherDisplay:10.37,2013-02-01 19:30:00,
2013-02-01 13:32:00,19.0,12.4,30.42,SSE,157,7.7,12.7,75,0.00,CLR,,0.00,WeatherDisplay:10.37,2013-02-01 19:32:00,
2013-02-01 13:34:00,19.0,11.8,30.42,SSE,157,9.0,15.0,73,0.00,CLR,,0.00,WeatherDisplay:10.37,2013-02-01 19:34:00,
2013-02-01 13:35:00,19.0,11.8,30.42,SSW,202,8.4,15.0,73,0.00,CLR,,0.00,WeatherDisplay:10.37,2013-02-01 19:35:00,
2013-02-01 13:37:00,20.0,12.7,30.42,SSE,157,8.1,12.7,73,0.00,CLR,,0.00,WeatherDisplay:10.37,2013-02-01 19:37:00,
2013-02-01 13:39:00,20.0,12.7,30.42,South,180,7.9,12.7,73,0.00,CLR,,0.00,WeatherDisplay:10.37,2013-02-01 19:39:00,
2013-02-01 13:40:00,20.0,12.7,30.42,South,180,7.6,11.5,73,0.00,CLR,,0.00,WeatherDisplay:10.37,2013-02-01 19:40:00,
2013-02-01 13:42:00,20.0,12.4,30.41,SSW,202,5.7,11.5,72,0.00,CLR,,0.00,WeatherDisplay:10.37,2013-02-01 19:42:00,
2013-02-01 13:43:00,20.0,12.4,30.41,East,90,4.7,10.4,72,0.00,CLR,,0.00,WeatherDisplay:10.37,2013-02-01 19:43:00,
2013-02-01 13:44:00,21.0,12.7,30.41,South,180,5.1,6.9,70,0.00,CLR,,0.00,WeatherDisplay:10.37,2013-02-01 19:44:00,
2013-02-01 13:45:00,21.0,12.7,30.41,SE,135,4.1,10.4,70,0.00,CLR,,0.00,WeatherDisplay:10.37,2013-02-01 19:45:00,
2013-02-01 13:48:00,21.0,12.7,30.41,SSE,157,7.4,16.1,70,0.00,CLR,,0.00,WeatherDisplay:10.37,2013-02-01 19:48:00,
2013-02-01 13:49:00,20.0,12.1,30.41,SSE,157,7.2,10.4,71,0.00,CLR,,0.00,WeatherDisplay:10.37,2013-02-01 19:49:00,
2013-02-01 13:50:00,20.0,12.1,30.41,SSE,157,6.2,11.5,71,0.00,CLR,,0.00,WeatherDisplay:10.37,2013-02-01 19:50:00,
2013-02-01 13:53:00,21.0,12.7,30.39,SSW,202,7.9,12.0,70,0.00,CLR,,0.00,WeatherDisplay:10.37,2013-02-01 19:53:00,
2013-02-01 13:54:00,20.0,12.4,30.39,SSE,157,8.3,16.1,72,0.00,CLR,,0.00,WeatherDisplay:10.37,2013-02-01 19:54:00,
2013-02-01 13:55:00,20.0,12.7,30.39,SSE,157,4.0,10.4,73,0.00,CLR,,0.00,WeatherDisplay:10.37,2013-02-01 19:55:00,
2013-02-01 13:58:00,21.0,13.1,30.39,SSE,157,4.6,12.7,71,0.00,CLR,,0.00,WeatherDisplay:10.37,2013-02-01 19:58:00,
2013-02-01 13:59:00,21.0,12.7,30.39,SSW,202,6.9,11.5,70,0.00,CLR,,0.00,WeatherDisplay:10.37,2013-02-01 19:59:00,
2013-02-01 14:00:00,21.0,12.7,30.39,South,180,7.6,11.5,70,0.00,CLR,,0.00,WeatherDisplay:10.37,2013-02-01 20:00:00,
2013-02-01 14:03:00,21.0,12.7,30.38,SSE,157,6.8,13.8,70,0.00,CLR,,0.00,WeatherDisplay:10.37,2013-02-01 20:03:00,
2013-02-01 14:04:00,21.0,13.4,30.38,SSW,202,4.5,10.4,72,0.00,CLR,,0.00,WeatherDisplay:10.37,2013-02-01 20:04:00,
2013-02-01 14:05:00,21.0,13.4,30.38,SSE,157,5.1,5.8,72,0.00,CLR,,0.00,WeatherDisplay:10.37,2013-02-01 20:05:00,
2013-02-01 14:08:00,21.0,13.4,30.38,SE,135,6.9,9.2,72,0.00,CLR,,0.00,WeatherDisplay:10.37,2013-02-01 20:08:00,
2013-02-01 14:10:00,21.0,13.4,30.38,SSE,157,6.4,9.2,72,0.00,CLR,,0.00,WeatherDisplay:10.37,2013-02-01 20:10:00,
2013-02-01 14:13:00,21.0,13.7,30.38,South,180,5.7,11.5,73,0.00,CLR,,0.00,WeatherDisplay:10.37,2013-02-01 20:13:00,
2013-02-01 14:15:00,21.0,14.0,30.38,NNE,22,4.8,11.5,74,0.00,CLR,,0.00,WeatherDisplay:10.37,2013-02-01 20:15:00,
2013-02-01 14:18:00,21.0,13.4,30.38,South,180,8.3,10.4,72,0.00,CLR,,0.00,WeatherDisplay:10.37,2013-02-01 20:18:00,
2013-02-01 14:20:00,21.0,13.7,30.38,South,180,2.7,8.1,73,0.00,CLR,,0.00,WeatherDisplay:10.37,2013-02-01 20:20:00,
2013-02-01 14:21:00,21.0,14.0,30.38,SSW,202,2.9,8.1,74,0.00,CLR,,0.00,WeatherDisplay:10.37,2013-02-01 20:21:00,
2013-02-01 14:24:00,21.0,14.0,30.38,WSW,247,5.4,9.2,74,0.00,CLR,,0.00,WeatherDisplay:10.37,2013-02-01 20:24:00,
2013-02-01 14:25:00,21.0,14.0,30.38,SSE,157,6.8,12.7,74,0.00,CLR,,0.00,WeatherDisplay:10.37,2013-02-01 20:25:00,
2013-02-01 14:26:00,21.0,14.0,30.38,SSW,202,4.9,9.0,74,0.00,CLR,,0.00,WeatherDisplay:10.37,2013-02-01 20:26:00,
2013-02-01 14:29:00,22.0,15.3,30.38,SSE,157,8.3,15.0,75,0.00,CLR,,0.00,WeatherDisplay:10.37,2013-02-01 20:29:00,
2013-02-01 14:30:00,22.0,15.0,30.38,WNW,292,7.8,11.5,74,0.00,CLR,,0.00,WeatherDisplay:10.37,2013-02-01 20:30:00,
2013-02-01 14:31:00,22.0,15.3,30.38,SSE,157,2.5,8.1,75,0.00,CLR,,0.00,WeatherDisplay:10.37,2013-02-01 20:31:00,
2013-02-01 14:34:00,22.0,15.3,30.36,SSW,202,4.6,9.2,75,0.00,CLR,,0.00,WeatherDisplay:10.37,2013-02-01 20:34:00,
2013-02-01 14:35:00,22.0,15.3,30.36,West,270,3.1,5.8,75,0.00,CLR,,0.00,WeatherDisplay:10.37,2013-02-01 20:35:00,
2013-02-01 14:36:00,22.0,15.3,30.36,SSE,157,3.6,8.1,75,0.00,CLR,,0.00,WeatherDisplay:10.37,2013-02-01 20:36:00,
2013-02-01 14:39:00,23.0,16.6,30.36,SSW,202,8.2,11.5,76,0.00,CLR,,0.00,WeatherDisplay:10.37,2013-02-01 20:39:00,
2013-02-01 14:40:00,23.0,16.6,30.36,SW,225,6.7,11.5,76,0.00,CLR,,0.00,WeatherDisplay:10.37,2013-02-01 20:40:00,
2013-02-01 14:41:00,23.0,16.9,30.36,South,180,6.4,11.5,77,0.00,CLR,,0.00,WeatherDisplay:10.37,2013-02-01 20:41:00,
2013-02-01 14:44:00,24.0,17.5,30.36,NE,45,9.2,15.0,76,0.00,CLR,,0.00,WeatherDisplay:10.37,2013-02-01 20:44:00,
2013-02-01 14:45:00,24.0,17.2,30.36,SSW,202,11.1,15.0,75,0.00,CLR,,0.00,WeatherDisplay:10.37,2013-02-01 20:45:00,
2013-02-01 14:46:00,24.0,16.9,30.36,SSW,202,10.2,20.7,74,0.00,CLR,,0.00,WeatherDisplay:10.37,2013-02-01 20:46:00,
2013-02-01 14:49:00,25.0,18.2,30.36,SW,225,5.4,13.0,75,0.00,CLR,,0.00,WeatherDisplay:10.37,2013-02-01 20:49:00,
2013-02-01 14:50:00,25.0,17.9,30.36,South,180,9.0,16.0,74,0.00,CLR,,0.00,WeatherDisplay:10.37,2013-02-01 20:50:00,
2013-02-01 14:51:00,25.0,17.9,30.36,SSW,202,8.9,16.1,74,0.00,CLR,,0.00,WeatherDisplay:10.37,2013-02-01 20:51:00,
2013-02-01 14:54:00,25.0,17.9,30.35,SSW,202,8.7,11.5,74,0.00,CLR,,0.00,WeatherDisplay:10.37,2013-02-01 20:54:00,
2013-02-01 14:56:00,25.0,18.5,30.35,South,180,8.2,13.8,76,0.00,CLR,,0.00,WeatherDisplay:10.37,2013-02-01 20:56:00,
2013-02-01 14:57:00,25.0,17.9,30.35,SSW,202,6.4,11.5,74,0.00,CLR,,0.00,WeatherDisplay:10.37,2013-02-01 20:57:00,
2013-02-01 15:00:00,25.0,18.2,30.35,WSW,247,6.3,10.4,75,0.00,CLR,,0.00,WeatherDisplay:10.37,2013-02-01 21:00:00,
2013-02-01 15:01:00,25.0,17.9,30.35,SSW,202,7.1,11.5,74,0.00,CLR,,0.00,WeatherDisplay:10.37,2013-02-01 21:01:00,
2013-02-01 15:02:00,26.0,18.8,30.35,SSW,202,5.5,8.1,74,0.00,CLR,,0.00,WeatherDisplay:10.37,2013-02-01 21:02:00,
2013-02-01 15:05:00,25.0,17.9,30.35,SSW,202,7.9,13.8,74,0.00,CLR,,0.00,WeatherDisplay:10.37,2013-02-01 21:05:00,
2013-02-01 15:06:00,25.0,17.9,30.35,SSE,157,7.9,11.5,74,0.00,CLR,,0.00,WeatherDisplay:10.37,2013-02-01 21:06:00,
2013-02-01 15:07:00,25.0,17.9,30.35,South,180,8.0,11.5,74,0.00,CLR,,0.00,WeatherDisplay:10.37,2013-02-01 21:07:00,
2013-02-01 15:10:00,26.0,18.8,30.35,NW,315,6.1,15.0,74,0.00,CLR,,0.00,WeatherDisplay:10.37,2013-02-01 21:10:00,
2013-02-01 15:11:00,26.0,18.8,30.35,SSW,202,4.8,15.0,74,0.00,CLR,,0.00,WeatherDisplay:10.37,2013-02-01 21:11:00,
2013-02-01 15:12:00,26.0,18.5,30.35,NW,315,7.5,15.0,73,0.00,CLR,,0.00,WeatherDisplay:10.37,2013-02-01 21:12:00,
2013-02-01 15:15:00,25.0,17.9,30.34,SSW,202,8.5,13.8,74,0.00,CLR,,0.00,WeatherDisplay:10.37,2013-02-01 21:15:00,
2013-02-01 15:16:00,25.0,17.9,30.34,SSW,202,7.4,16.1,74,0.00,CLR,,0.00,WeatherDisplay:10.37,2013-02-01 21:16:00,
2013-02-01 15:17:00,26.0,19.2,30.34,SSW,202,6.2,9.0,75,0.00,CLR,,0.00,WeatherDisplay:10.37,2013-02-01 21:17:00,
2013-02-01 15:20:00,26.0,19.2,30.34,SSW,202,5.2,11.5,75,0.00,CLR,,0.00,WeatherDisplay:10.37,2013-02-01 21:20:00,
2013-02-01 15:21:00,26.0,19.5,30.34,SSW,202,4.2,6.9,76,0.00,CLR,,0.00,WeatherDisplay:10.37,2013-02-01 21:21:00,
2013-02-01 15:22:00,26.0,19.5,30.34,South,180,5.4,6.9,76,0.00,CLR,,0.00,WeatherDisplay:10.37,2013-02-01 21:22:00,
2013-02-01 15:26:00,26.0,18.8,30.35,WSW,247,6.2,11.5,74,0.00,CLR,,0.00,WeatherDisplay:10.37,2013-02-01 21:26:00,
2013-02-01 15:27:00,26.0,19.2,30.35,SSW,202,8.2,11.0,75,0.00,CLR,,0.00,WeatherDisplay:10.37,2013-02-01 21:27:00,
2013-02-01 15:31:00,26.0,18.8,30.35,SSE,157,8.4,11.5,74,0.00,CLR,,0.00,WeatherDisplay:10.37,2013-02-01 21:31:00,
2013-02-01 15:32:00,26.0,18.8,30.35,SSW,202,8.9,15.0,74,0.00,CLR,,0.00,WeatherDisplay:10.37,2013-02-01 21:32:00,
2013-02-01 15:36:00,26.0,18.8,30.35,SSW,202,7.0,11.5,74,0.00,CLR,,0.00,WeatherDisplay:10.37,2013-02-01 21:36:00,
2013-02-01 15:37:00,26.0,18.8,30.35,SSW,202,8.3,14.0,74,0.00,CLR,,0.00,WeatherDisplay:10.37,2013-02-01 21:37:00,
2013-02-01 15:41:00,26.0,18.5,30.35,South,180,7.4,11.5,73,0.00,CLR,,0.00,WeatherDisplay:10.37,2013-02-01 21:41:00,
2013-02-01 15:42:00,26.0,18.8,30.35,NW,315,7.9,10.4,74,0.00,CLR,,0.00,WeatherDisplay:10.37,2013-02-01 21:42:00,
2013-02-01 15:46:00,26.0,18.8,30.34,SSW,202,6.9,11.5,74,0.00,CLR,,0.00,WeatherDisplay:10.37,2013-02-01 21:46:00,
2013-02-01 15:47:00,26.0,18.8,30.34,SSW,202,3.9,10.4,74,0.00,CLR,,0.00,WeatherDisplay:10.37,2013-02-01 21:47:00,
2013-02-01 15:52:00,26.0,18.5,30.34,SSW,202,7.9,11.5,73,0.00,CLR,,0.00,WeatherDisplay:10.37,2013-02-01 21:52:00,
2013-02-01 15:57:00,26.0,18.5,30.33,SW,225,7.3,13.8,73,0.00,CLR,,0.00,WeatherDisplay:10.37,2013-02-01 21:57:00,
2013-02-01 15:58:00,26.0,18.2,30.33,South,180,8.3,10.4,72,0.00,CLR,,0.00,WeatherDisplay:10.37,2013-02-01 21:58:00,
2013-02-01 16:02:00,27.0,18.8,30.33,SSW,202,8.7,12.7,71,0.00,CLR,,0.00,WeatherDisplay:10.37,2013-02-01 22:02:00,
2013-02-01 16:03:00,27.0,19.2,30.32,SW,225,7.2,10.4,72,0.00,CLR,,0.00,WeatherDisplay:10.37,2013-02-01 22:03:00,
2013-02-01 16:07:00,27.0,18.2,30.32,South,180,8.3,13.0,69,0.00,CLR,,0.00,WeatherDisplay:10.37,2013-02-01 22:07:00,
2013-02-01 16:08:00,27.0,18.2,30.32,SSW,202,9.2,15.0,69,0.00,CLR,,0.00,WeatherDisplay:10.37,2013-02-01 22:08:00,
2013-02-01 16:12:00,27.0,18.5,30.31,WSW,247,5.5,12.0,70,0.00,CLR,,0.00,WeatherDisplay:10.37,2013-02-01 22:12:00,
2013-02-01 16:13:00,27.0,18.5,30.31,SSW,202,9.1,19.6,70,0.00,CLR,,0.00,WeatherDisplay:10.37,2013-02-01 22:13:00,
2013-02-01 16:17:00,27.0,18.8,30.31,WSW,247,6.4,10.4,71,0.00,CLR,,0.00,WeatherDisplay:10.37,2013-02-01 22:17:00,
2013-02-01 16:18:00,27.0,18.8,30.31,SW,225,6.1,12.7,71,0.00,CLR,,0.00,WeatherDisplay:10.37,2013-02-01 22:18:00,
2013-02-01 16:22:00,26.0,18.5,30.31,SSW,202,6.9,10.4,73,0.00,CLR,,0.00,WeatherDisplay:10.37,2013-02-01 22:22:00,
2013-02-01 16:23:00,26.0,18.5,30.31,SSW,202,6.8,10.4,73,0.00,CLR,,0.00,WeatherDisplay:10.37,2013-02-01 22:23:00,
2013-02-01 16:28:00,26.0,18.8,30.31,South,180,7.6,12.7,74,0.00,CLR,,0.00,WeatherDisplay:10.37,2013-02-01 22:28:00,
2013-02-01 16:29:00,26.0,18.5,30.31,SSW,202,9.4,11.5,73,0.00,CLR,,0.00,WeatherDisplay:10.37,2013-02-01 22:29:00,
2013-02-01 16:33:00,26.0,18.5,30.30,SSW,202,9.1,11.5,73,0.00,CLR,,0.00,WeatherDisplay:10.37,2013-02-01 22:33:00,
2013-02-01 16:34:00,26.0,18.8,30.30,SSW,202,8.5,12.7,74,0.00,CLR,,0.00,WeatherDisplay:10.37,2013-02-01 22:34:00,
2013-02-01 16:38:00,25.0,18.2,30.30,SSW,202,4.7,15.0,75,0.00,CLR,,0.00,WeatherDisplay:10.37,2013-02-01 22:38:00,
2013-02-01 16:39:00,25.0,17.9,30.30,SSE,157,8.6,11.5,74,0.00,CLR,,0.00,WeatherDisplay:10.37,2013-02-01 22:39:00,
2013-02-01 16:43:00,25.0,17.9,30.31,SSW,202,6.1,15.0,74,0.00,CLR,,0.00,WeatherDisplay:10.37,2013-02-01 22:43:00,
2013-02-01 16:44:00,25.0,18.2,30.31,SSW,202,7.9,10.4,75,0.00,CLR,,0.00,WeatherDisplay:10.37,2013-02-01 22:44:00,
2013-02-01 16:48:00,25.0,17.9,30.31,SSW,202,7.7,15.0,74,0.00,CLR,,0.00,WeatherDisplay:10.37,2013-02-01 22:48:00,
2013-02-01 16:49:00,25.0,18.2,30.31,SW,225,5.7,10.4,75,0.00,CLR,,0.00,WeatherDisplay:10.37,2013-02-01 22:49:00,
2013-02-01 16:53:00,25.0,18.2,30.32,South,180,3.3,6.9,75,0.00,CLR,,0.00,WeatherDisplay:10.37,2013-02-01 22:53:00,
2013-02-01 16:54:00,25.0,18.2,30.32,SSW,202,5.7,8.1,75,0.00,CLR,,0.00,WeatherDisplay:10.37,2013-02-01 22:54:00,
2013-02-01 16:58:00,25.0,18.2,30.32,SW,225,7.2,16.1,75,0.00,CLR,,0.00,WeatherDisplay:10.37,2013-02-01 22:58:00,
2013-02-01 16:59:00,25.0,18.2,30.32,WSW,247,6.7,11.5,75,0.00,CLR,,0.00,WeatherDisplay:10.37,2013-02-01 22:59:00,
2013-02-01 17:03:00,25.0,17.9,30.32,SSW,202,6.3,10.0,74,0.00,CLR,,0.00,WeatherDisplay:10.37,2013-02-01 23:03:00,
2013-02-01 17:04:00,25.0,17.9,30.32,South,180,6.6,9.2,74,0.00,CLR,,0.00,WeatherDisplay:10.37,2013-02-01 23:04:00,
2013-02-01 17:08:00,25.0,18.2,30.32,SSW,202,6.5,11.5,75,0.00,CLR,,0.00,WeatherDisplay:10.37,2013-02-01 23:08:00,
2013-02-01 17:09:00,25.0,17.9,30.32,SSW,202,6.4,11.5,74,0.00,CLR,,0.00,WeatherDisplay:10.37,2013-02-01 23:09:00,
2013-02-01 17:10:00,25.0,18.2,30.32,SSW,202,7.7,11.5,75,0.00,CLR,,0.00,WeatherDisplay:10.37,2013-02-01 23:10:00,
2013-02-01 17:13:00,25.0,18.2,30.33,SSW,202,6.8,8.1,75,0.00,CLR,,0.00,WeatherDisplay:10.37,2013-02-01 23:13:00,
2013-02-01 17:14:00,25.0,18.2,30.33,WSW,247,5.4,8.1,75,0.00,CLR,,0.00,WeatherDisplay:10.37,2013-02-01 23:14:00,
2013-02-01 17:15:00,25.0,18.2,30.33,SSE,157,8.3,15.0,75,0.00,CLR,,0.00,WeatherDisplay:10.37,2013-02-01 23:15:00,
2013-02-01 17:18:00,25.0,17.9,30.33,SSW,202,5.8,9.2,74,0.00,CLR,,0.00,WeatherDisplay:10.37,2013-02-01 23:18:00,
2013-02-01 17:19:00,25.0,17.9,30.33,SSW,202,5.8,11.5,74,0.00,CLR,,0.00,WeatherDisplay:10.37,2013-02-01 23:19:00,
2013-02-01 17:20:00,25.0,17.9,30.33,SSW,202,5.7,9.2,74,0.00,CLR,,0.00,WeatherDisplay:10.37,2013-02-01 23:20:00,
2013-02-01 17:23:00,25.0,17.9,30.33,South,180,8.3,10.4,74,0.00,CLR,,0.00,WeatherDisplay:10.37,2013-02-01 23:23:00,
2013-02-01 17:24:00,25.0,17.9,30.33,South,180,5.6,15.0,74,0.00,CLR,,0.00,WeatherDisplay:10.37,2013-02-01 23:24:00,
2013-02-01 17:25:00,25.0,17.9,30.33,SW,225,5.4,9.2,74,0.00,CLR,,0.00,WeatherDisplay:10.37,2013-02-01 23:25:00,
2013-02-01 17:28:00,25.0,17.9,30.33,SSW,202,8.2,12.7,74,0.00,CLR,,0.00,WeatherDisplay:10.37,2013-02-01 23:28:00,
2013-02-01 17:29:00,25.0,17.9,30.33,SW,225,7.8,11.5,74,0.00,CLR,,0.00,WeatherDisplay:10.37,2013-02-01 23:29:00,
2013-02-01 17:30:00,25.0,17.9,30.33,SSW,202,7.2,11.5,74,0.00,CLR,,0.00,WeatherDisplay:10.37,2013-02-01 23:30:00,
2013-02-01 17:33:00,25.0,17.9,30.32,SSW,202,6.6,9.2,74,0.00,CLR,,0.00,WeatherDisplay:10.37,2013-02-01 23:33:00,
2013-02-01 17:34:00,25.0,17.9,30.32,SSW,202,5.1,10.4,74,0.00,CLR,,0.00,WeatherDisplay:10.37,2013-02-01 23:34:00,
2013-02-01 17:35:00,25.0,17.9,30.32,SSW,202,5.4,10.4,74,0.00,CLR,,0.00,WeatherDisplay:10.37,2013-02-01 23:35:00,
2013-02-01 17:38:00,25.0,18.2,30.32,SSE,157,6.2,9.0,75,0.00,CLR,,0.00,WeatherDisplay:10.37,2013-02-01 23:38:00,
2013-02-01 17:39:00,25.0,17.9,30.32,SSW,202,7.5,10.4,74,0.00,CLR,,0.00,WeatherDisplay:10.37,2013-02-01 23:39:00,
2013-02-01 17:40:00,25.0,17.9,30.32,SSW,202,6.8,10.4,74,0.00,CLR,,0.00,WeatherDisplay:10.37,2013-02-01 23:40:00,
2013-02-01 17:43:00,25.0,18.2,30.32,SSW,202,5.2,9.2,75,0.00,CLR,,0.00,WeatherDisplay:10.37,2013-02-01 23:43:00,
2013-02-01 17:45:00,25.0,18.5,30.32,South,180,4.3,7.0,76,0.00,CLR,,0.00,WeatherDisplay:10.37,2013-02-01 23:45:00,
2013-02-01 17:46:00,25.0,18.2,30.32,SSE,157,5.3,11.0,75,0.00,CLR,,0.00,WeatherDisplay:10.37,2013-02-01 23:46:00,
2013-02-01 17:48:00,25.0,18.2,30.32,South,180,5.3,9.2,75,0.00,CLR,,0.00,WeatherDisplay:10.37,2013-02-01 23:48:00,
2013-02-01 17:50:00,25.0,17.9,30.32,SSW,202,8.2,12.7,74,0.00,CLR,,0.00,WeatherDisplay:10.37,2013-02-01 23:50:00,
2013-02-01 17:51:00,25.0,18.2,30.32,WSW,247,6.4,10.4,75,0.00,CLR,,0.00,WeatherDisplay:10.37,2013-02-01 23:51:00,
2013-02-01 17:53:00,25.0,17.9,30.33,SSW,202,8.4,13.8,74,0.00,CLR,,0.00,WeatherDisplay:10.37,2013-02-01 23:53:00,
2013-02-01 17:55:00,25.0,17.9,30.33,SE,135,6.1,13.8,74,0.00,CLR,,0.00,WeatherDisplay:10.37,2013-02-01 23:55:00,
2013-02-01 17:56:00,25.0,18.2,30.33,WSW,247,7.9,10.4,75,0.00,CLR,,0.00,WeatherDisplay:10.37,2013-02-01 23:56:00,
2013-02-01 17:59:00,25.0,18.5,30.33,SSW,202,5.8,10.4,76,0.00,CLR,,0.00,WeatherDisplay:10.37,2013-02-01 23:59:00,
2013-02-01 18:00:00,25.0,18.5,30.33,South,180,6.9,10.0,76,0.00,CLR,,0.00,WeatherDisplay:10.37,2013-02-02 00:00:00,
2013-02-01 18:01:00,25.0,18.2,30.33,South,180,6.4,11.5,75,0.00,CLR,,0.00,WeatherDisplay:10.37,2013-02-02 00:01:00,
2013-02-01 18:04:00,25.0,18.2,30.33,SW,225,7.0,7.0,75,0.00,CLR,,0.00,WeatherDisplay:10.37,2013-02-02 00:04:00,
2013-02-01 18:05:00,25.0,17.9,30.33,SSW,202,6.9,11.5,74,0.00,CLR,,0.00,WeatherDisplay:10.37,2013-02-02 00:05:00,
2013-02-01 18:06:00,25.0,18.2,30.33,SSW,202,5.1,9.2,75,0.00,CLR,,0.00,WeatherDisplay:10.37,2013-02-02 00:06:00,
2013-02-01 18:09:00,25.0,17.9,30.33,SSW,202,7.7,9.2,74,0.00,CLR,,0.00,WeatherDisplay:10.37,2013-02-02 00:09:00,
2013-02-01 18:10:00,25.0,17.9,30.33,SSW,202,5.5,10.4,74,0.00,CLR,,0.00,WeatherDisplay:10.37,2013-02-02 00:10:00,
2013-02-01 18:11:00,25.0,17.9,30.33,SSW,202,8.3,10.4,74,0.00,CLR,,0.00,WeatherDisplay:10.37,2013-02-02 00:11:00,
2013-02-01 18:14:00,25.0,17.9,30.33,SSW,202,5.7,9.2,74,0.00,CLR,,0.00,WeatherDisplay:10.37,2013-02-02 00:14:00,
2013-02-01 18:15:00,25.0,17.9,30.33,SSW,202,5.5,7.0,74,0.00,CLR,,0.00,WeatherDisplay:10.37,2013-02-02 00:15:00,
2013-02-01 18:16:00,25.0,17.9,30.33,WSW,247,7.2,10.4,74,0.00,CLR,,0.00,WeatherDisplay:10.37,2013-02-02 00:16:00,
2013-02-01 18:19:00,25.0,17.9,30.33,SSW,202,6.3,11.5,74,0.00,CLR,,0.00,WeatherDisplay:10.37,2013-02-02 00:19:00,
2013-02-01 18:20:00,25.0,17.9,30.33,WSW,247,5.1,9.2,74,0.00,CLR,,0.00,WeatherDisplay:10.37,2013-02-02 00:20:00,
2013-02-01 18:21:00,25.0,17.9,30.33,SSW,202,3.8,9.2,74,0.00,CLR,,0.00,WeatherDisplay:10.37,2013-02-02 00:21:00,
2013-02-01 18:22:00,26.0,18.8,30.33,SSW,202,7.4,15.0,74,0.00,CLR,,0.00,WeatherDisplay:10.37,2013-02-02 00:22:00,
2013-02-01 18:25:00,25.0,17.9,30.33,NNW,337,7.8,11.5,74,0.00,CLR,,0.00,WeatherDisplay:10.37,2013-02-02 00:25:00,
2013-02-01 18:26:00,25.0,17.9,30.33,SSW,202,8.0,11.5,74,0.00,CLR,,0.00,WeatherDisplay:10.37,2013-02-02 00:26:00,
2013-02-01 18:27:00,25.0,17.9,30.33,SSW,202,8.1,12.7,74,0.00,CLR,,0.00,WeatherDisplay:10.37,2013-02-02 00:27:00,
2013-02-01 18:30:00,25.0,17.9,30.33,SSW,202,8.8,12.7,74,0.00,CLR,,0.00,WeatherDisplay:10.37,2013-02-02 00:30:00,
2013-02-01 18:31:00,25.0,17.9,30.33,WSW,247,7.7,10.4,74,0.00,CLR,,0.00,WeatherDisplay:10.37,2013-02-02 00:31:00,
2013-02-01 18:32:00,25.0,17.9,30.33,South,180,5.9,9.2,74,0.00,CLR,,0.00,WeatherDisplay:10.37,2013-02-02 00:32:00,
2013-02-01 18:35:00,25.0,18.2,30.33,SSW,202,6.9,11.5,75,0.00,CLR,,0.00,WeatherDisplay:10.37,2013-02-02 00:35:00,
2013-02-01 18:36:00,25.0,18.2,30.33,SSW,202,8.3,11.5,75,0.00,CLR,,0.00,WeatherDisplay:10.37,2013-02-02 00:36:00,
2013-02-01 18:37:00,25.0,18.2,30.33,SSE,157,8.9,15.0,75,0.00,CLR,,0.00,WeatherDisplay:10.37,2013-02-02 00:37:00,
2013-02-01 18:40:00,25.0,18.5,30.33,SW,225,6.9,9.2,76,0.00,CLR,,0.00,WeatherDisplay:10.37,2013-02-02 00:40:00,
2013-02-01 18:41:00,25.0,18.2,30.33,SSW,202,9.3,11.5,75,0.00,CLR,,0.00,WeatherDisplay:10.37,2013-02-02 00:41:00,
2013-02-01 18:42:00,25.0,18.2,30.32,SSW,202,7.3,11.5,75,0.00,CLR,,0.00,WeatherDisplay:10.37,2013-02-02 00:42:00,
2013-02-01 18:45:00,25.0,18.2,30.32,South,180,9.2,16.1,75,0.00,CLR,,0.00,WeatherDisplay:10.37,2013-02-02 00:45:00,
2013-02-01 18:46:00,25.0,18.5,30.32,SSW,202,8.0,11.5,76,0.00,CLR,,0.00,WeatherDisplay:10.37,2013-02-02 00:46:00,
2013-02-01 18:47:00,25.0,18.5,30.32,SSW,202,6.4,11.5,76,0.00,CLR,,0.00,WeatherDisplay:10.37,2013-02-02 00:47:00,
2013-02-01 18:50:00,25.0,18.5,30.32,NW,315,5.0,8.1,76,0.00,CLR,,0.00,WeatherDisplay:10.37,2013-02-02 00:50:00,
2013-02-01 18:51:00,25.0,18.5,30.32,SSW,202,6.7,11.5,76,0.00,CLR,,0.00,WeatherDisplay:10.37,2013-02-02 00:51:00,
2013-02-01 18:52:00,25.0,18.5,30.32,SSE,157,5.9,11.5,76,0.00,CLR,,0.00,WeatherDisplay:10.37,2013-02-02 00:52:00,
2013-02-01 18:55:00,25.0,18.5,30.32,South,180,6.8,9.2,76,0.00,CLR,,0.00,WeatherDisplay:10.37,2013-02-02 00:55:00,
2013-02-01 18:56:00,25.0,18.5,30.32,SSW,202,6.7,10.4,76,0.00,CLR,,0.00,WeatherDisplay:10.37,2013-02-02 00:56:00,
2013-02-01 18:57:00,25.0,18.5,30.32,SSW,202,8.5,10.4,76,0.00,CLR,,0.00,WeatherDisplay:10.37,2013-02-02 00:57:00,
2013-02-01 19:00:00,25.0,18.5,30.32,SSW,202,8.1,9.2,76,0.00,CLR,,0.00,WeatherDisplay:10.37,2013-02-02 01:00:00,
2013-02-01 19:01:00,25.0,18.5,30.32,SSW,202,9.0,12.0,76,0.00,CLR,,0.00,WeatherDisplay:10.37,2013-02-02 01:01:00,
2013-02-01 19:02:00,25.0,18.5,30.32,SSW,202,8.4,13.8,76,0.00,CLR,,0.00,WeatherDisplay:10.37,2013-02-02 01:02:00,
2013-02-01 19:05:00,25.0,18.5,30.32,SW,225,5.6,10.4,76,0.00,CLR,,0.00,WeatherDisplay:10.37,2013-02-02 01:05:00,
2013-02-01 19:06:00,25.0,18.5,30.32,SW,225,5.8,10.4,76,0.00,CLR,,0.00,WeatherDisplay:10.37,2013-02-02 01:06:00,
2013-02-01 19:07:00,25.0,19.1,30.32,WSW,247,3.9,10.4,78,0.00,CLR,,0.00,WeatherDisplay:10.37,2013-02-02 01:07:00,
2013-02-01 19:10:00,25.0,19.1,30.32,SW,225,6.1,11.5,78,0.00,CLR,,0.00,WeatherDisplay:10.37,2013-02-02 01:10:00,
2013-02-01 19:11:00,25.0,19.1,30.32,South,180,5.7,11.5,78,0.00,CLR,,0.00,WeatherDisplay:10.37,2013-02-02 01:11:00,
2013-02-01 19:12:00,25.0,18.8,30.32,WSW,247,8.9,10.4,77,0.00,CLR,,0.00,WeatherDisplay:10.37,2013-02-02 01:12:00,
2013-02-01 19:15:00,25.0,19.1,30.32,SW,225,6.2,8.1,78,0.00,CLR,,0.00,WeatherDisplay:10.37,2013-02-02 01:15:00,
2013-02-01 19:16:00,25.0,19.1,30.32,SW,225,6.4,10.4,78,0.00,CLR,,0.00,WeatherDisplay:10.37,2013-02-02 01:16:00,
2013-02-01 19:18:00,25.0,19.1,30.32,SSW,202,8.8,18.4,78,0.00,CLR,,0.00,WeatherDisplay:10.37,2013-02-02 01:18:00,
2013-02-01 19:21:00,25.0,19.1,30.32,WSW,247,6.1,8.1,78,0.00,CLR,,0.00,WeatherDisplay:10.37,2013-02-02 01:21:00,
2013-02-01 19:23:00,25.0,19.1,30.32,South,180,6.9,11.5,78,0.00,CLR,,0.00,WeatherDisplay:10.37,2013-02-02 01:23:00,
2013-02-01 19:26:00,25.0,19.1,30.32,West,270,8.2,11.5,78,0.00,CLR,,0.00,WeatherDisplay:10.37,2013-02-02 01:26:00,
2013-02-01 19:28:00,25.0,19.1,30.32,SSW,202,7.2,8.1,78,0.00,CLR,,0.00,WeatherDisplay:10.37,2013-02-02 01:28:00,
2013-02-01 19:31:00,25.0,19.1,30.32,SSW,202,8.3,13.8,78,0.00,CLR,,0.00,WeatherDisplay:10.37,2013-02-02 01:31:00,
2013-02-01 19:32:00,25.0,19.1,30.32,NW,315,6.4,13.8,78,0.00,CLR,,0.00,WeatherDisplay:10.37,2013-02-02 01:32:00,
2013-02-01 19:33:00,25.0,19.1,30.32,SSE,157,5.2,10.4,78,0.00,CLR,,0.00,WeatherDisplay:10.37,2013-02-02 01:33:00,
2013-02-01 19:36:00,25.0,19.1,30.32,South,180,7.1,10.4,78,0.00,CLR,,0.00,WeatherDisplay:10.37,2013-02-02 01:36:00,
2013-02-01 19:37:00,25.0,19.1,30.32,SSW,202,6.5,10.4,78,0.00,CLR,,0.00,WeatherDisplay:10.37,2013-02-02 01:37:00,
2013-02-01 19:38:00,25.0,19.1,30.32,SSW,202,5.0,10.4,78,0.00,CLR,,0.00,WeatherDisplay:10.37,2013-02-02 01:38:00,
2013-02-01 19:41:00,25.0,19.1,30.32,SSW,202,6.5,15.0,78,0.00,CLR,,0.00,WeatherDisplay:10.37,2013-02-02 01:41:00,
2013-02-01 19:42:00,25.0,19.1,30.32,WSW,247,7.9,8.1,78,0.00,CLR,,0.00,WeatherDisplay:10.37,2013-02-02 01:42:00,
2013-02-01 19:43:00,25.0,19.1,30.32,SSW,202,7.1,15.0,78,0.00,CLR,,0.00,WeatherDisplay:10.37,2013-02-02 01:43:00,
2013-02-01 19:46:00,24.0,18.4,30.32,SSW,202,6.5,10.4,79,0.00,CLR,,0.00,WeatherDisplay:10.37,2013-02-02 01:46:00,
2013-02-01 19:47:00,24.0,18.4,30.32,SSW,202,4.6,8.1,79,0.00,CLR,,0.00,WeatherDisplay:10.37,2013-02-02 01:47:00,
2013-02-01 19:48:00,24.0,18.1,30.32,SSW,202,5.7,9.2,78,0.00,CLR,,0.00,WeatherDisplay:10.37,2013-02-02 01:48:00,
2013-02-01 19:51:00,25.0,19.4,30.32,SSW,202,5.6,8.1,79,0.00,CLR,,0.00,WeatherDisplay:10.37,2013-02-02 01:51:00,
2013-02-01 19:52:00,25.0,19.4,30.32,SSW,202,7.1,15.0,79,0.00,CLR,,0.00,WeatherDisplay:10.37,2013-02-02 01:52:00,
2013-02-01 19:53:00,25.0,19.1,30.32,WSW,247,7.3,11.5,78,0.00,CLR,,0.00,WeatherDisplay:10.37,2013-02-02 01:53:00,
2013-02-01 19:56:00,25.0,19.1,30.32,SE,135,8.3,15.0,78,0.00,CLR,,0.00,WeatherDisplay:10.37,2013-02-02 01:56:00,
2013-02-01 19:57:00,25.0,19.1,30.32,SSW,202,8.3,13.8,78,0.00,CLR,,0.00,WeatherDisplay:10.37,2013-02-02 01:57:00,
2013-02-01 19:58:00,25.0,19.1,30.32,SW,225,7.6,12.7,78,0.00,CLR,,0.00,WeatherDisplay:10.37,2013-02-02 01:58:00,
2013-02-01 20:01:00,25.0,19.1,30.32,SSW,202,8.9,13.8,78,0.00,CLR,,0.00,WeatherDisplay:10.37,2013-02-02 02:01:00,
2013-02-01 20:02:00,25.0,19.1,30.32,SSW,202,8.1,10.4,78,0.00,CLR,,0.00,WeatherDisplay:10.37,2013-02-02 02:02:00,
2013-02-01 20:03:00,25.0,19.1,30.31,SSE,157,5.9,11.5,78,0.00,CLR,,0.00,WeatherDisplay:10.37,2013-02-02 02:03:00,
2013-02-01 20:07:00,25.0,19.1,30.31,SSW,202,6.2,11.0,78,0.00,CLR,,0.00,WeatherDisplay:10.37,2013-02-02 02:07:00,
2013-02-01 20:08:00,25.0,19.1,30.31,SSW,202,4.4,8.1,78,0.00,CLR,,0.00,WeatherDisplay:10.37,2013-02-02 02:08:00,
2013-02-01 20:12:00,25.0,19.1,30.31,SW,225,4.8,10.4,78,0.00,CLR,,0.00,WeatherDisplay:10.37,2013-02-02 02:12:00,
2013-02-01 20:13:00,25.0,19.1,30.32,SW,225,4.6,10.4,78,0.00,CLR,,0.00,WeatherDisplay:10.37,2013-02-02 02:13:00,
2013-02-01 20:17:00,25.0,19.1,30.32,South,180,8.9,15.0,78,0.00,CLR,,0.00,WeatherDisplay:10.37,2013-02-02 02:17:00,
2013-02-01 20:18:00,25.0,19.1,30.32,SSW,202,5.7,11.5,78,0.00,CLR,,0.00,WeatherDisplay:10.37,2013-02-02 02:18:00,
2013-02-01 20:19:00,25.0,19.1,30.32,SSW,202,5.5,11.5,78,0.00,CLR,,0.00,WeatherDisplay:10.37,2013-02-02 02:19:00,
2013-02-01 20:22:00,25.0,19.1,30.32,SSW,202,7.1,12.7,78,0.00,CLR,,0.00,WeatherDisplay:10.37,2013-02-02 02:22:00,
2013-02-01 20:23:00,25.0,19.1,30.32,SW,225,8.3,10.4,78,0.00,CLR,,0.00,WeatherDisplay:10.37,2013-02-02 02:23:00,
2013-02-01 20:24:00,25.0,19.1,30.32,SSW,202,9.2,12.7,78,0.00,CLR,,0.00,WeatherDisplay:10.37,2013-02-02 02:24:00,
2013-02-01 20:27:00,25.0,18.8,30.32,SW,225,6.2,8.1,77,0.00,CLR,,0.00,WeatherDisplay:10.37,2013-02-02 02:27:00,
2013-02-01 20:29:00,25.0,19.1,30.32,SSW,202,5.9,8.1,78,0.00,CLR,,0.00,WeatherDisplay:10.37,2013-02-02 02:29:00,
2013-02-01 20:32:00,25.0,18.8,30.32,SSW,202,5.5,11.5,77,0.00,CLR,,0.00,WeatherDisplay:10.37,2013-02-02 02:32:00,
2013-02-01 20:34:00,25.0,18.8,30.32,SSW,202,9.0,9.0,77,0.00,CLR,,0.00,WeatherDisplay:10.37,2013-02-02 02:34:00,
2013-02-01 20:37:00,25.0,19.1,30.32,SSE,157,6.2,6.9,78,0.00,CLR,,0.00,WeatherDisplay:10.37,2013-02-02 02:37:00,
2013-02-01 20:39:00,25.0,19.1,30.32,SSE,157,6.8,10.4,78,0.00,CLR,,0.00,WeatherDisplay:10.37,2013-02-02 02:39:00,
2013-02-01 20:42:00,25.0,18.8,30.32,SSW,202,7.5,12.7,77,0.00,CLR,,0.00,WeatherDisplay:10.37,2013-02-02 02:42:00,
2013-02-01 20:44:00,25.0,18.8,30.31,SSW,202,6.5,9.0,77,0.00,CLR,,0.00,WeatherDisplay:10.37,2013-02-02 02:44:00,
2013-02-01 20:47:00,25.0,19.1,30.31,SW,225,7.2,10.4,78,0.00,CLR,,0.00,WeatherDisplay:10.37,2013-02-02 02:47:00,
2013-02-01 20:48:00,25.0,19.1,30.31,SW,225,7.6,12.7,78,0.00,CLR,,0.00,WeatherDisplay:10.37,2013-02-02 02:48:00,
2013-02-01 20:49:00,25.0,18.8,30.31,SSW,202,8.2,10.4,77,0.00,CLR,,0.00,WeatherDisplay:10.37,2013-02-02 02:49:00,
2013-02-01 20:52:00,25.0,18.8,30.31,SSW,202,7.1,11.5,77,0.00,CLR,,0.00,WeatherDisplay:10.37,2013-02-02 02:52:00,
2013-02-01 20:53:00,25.0,18.8,30.31,SW,225,6.2,11.5,77,0.00,CLR,,0.00,WeatherDisplay:10.37,2013-02-02 02:53:00,
2013-02-01 20:54:00,25.0,18.8,30.31,SSW,202,5.7,9.0,77,0.00,CLR,,0.00,WeatherDisplay:10.37,2013-02-02 02:54:00,
2013-02-01 20:55:00,25.0,18.8,30.31,SSW,202,5.6,8.1,77,0.00,CLR,,0.00,WeatherDisplay:10.37,2013-02-02 02:55:00,
2013-02-01 20:57:00,25.0,19.1,30.31,WSW,247,4.6,9.2,78,0.00,CLR,,0.00,WeatherDisplay:10.37,2013-02-02 02:57:00,
2013-02-01 20:59:00,25.0,19.1,30.31,SW,225,7.1,11.0,78,0.00,CLR,,0.00,WeatherDisplay:10.37,2013-02-02 02:59:00,
2013-02-01 21:00:00,25.0,18.8,30.31,WSW,247,7.1,11.5,77,0.00,CLR,,0.00,WeatherDisplay:10.37,2013-02-02 03:00:00,
2013-02-01 21:02:00,25.0,18.5,30.31,WSW,247,7.3,11.5,76,0.00,CLR,,0.00,WeatherDisplay:10.37,2013-02-02 03:02:00,
2013-02-01 21:04:00,25.0,18.5,30.31,SSW,202,8.0,12.7,76,0.00,CLR,,0.00,WeatherDisplay:10.37,2013-02-02 03:04:00,
2013-02-01 21:05:00,25.0,19.1,30.31,SSW,202,5.5,13.8,78,0.00,CLR,,0.00,WeatherDisplay:10.37,2013-02-02 03:05:00,
2013-02-01 21:06:00,25.0,18.8,30.31,SW,225,5.2,6.9,77,0.00,CLR,,0.00,WeatherDisplay:10.37,2013-02-02 03:06:00,
2013-02-01 21:07:00,25.0,18.5,30.31,South,180,7.1,10.4,76,0.00,CLR,,0.00,WeatherDisplay:10.37,2013-02-02 03:07:00,
2013-02-01 21:09:00,25.0,18.5,30.31,SW,225,8.8,13.8,76,0.00,CLR,,0.00,WeatherDisplay:10.37,2013-02-02 03:09:00,
2013-02-01 21:10:00,25.0,18.5,30.31,SW,225,6.9,11.5,76,0.00,CLR,,0.00,WeatherDisplay:10.37,2013-02-02 03:10:00,
2013-02-01 21:11:00,25.0,18.8,30.31,NW,315,5.0,11.5,77,0.00,CLR,,0.00,WeatherDisplay:10.37,2013-02-02 03:11:00,
2013-02-01 21:12:00,25.0,18.5,30.32,SSW,202,5.4,10.0,76,0.00,CLR,,0.00,WeatherDisplay:10.37,2013-02-02 03:12:00,
2013-02-01 21:14:00,25.0,18.5,30.32,WSW,247,3.4,15.0,76,0.00,CLR,,0.00,WeatherDisplay:10.37,2013-02-02 03:14:00,
2013-02-01 21:15:00,25.0,18.5,30.32,South,180,3.4,10.0,76,0.00,CLR,,0.00,WeatherDisplay:10.37,2013-02-02 03:15:00,
2013-02-01 21:16:00,25.0,18.8,30.32,SSW,202,7.3,10.0,77,0.00,CLR,,0.00,WeatherDisplay:10.37,2013-02-02 03:16:00,
2013-02-01 21:18:00,25.0,18.5,30.32,SSW,202,8.4,11.5,76,0.00,CLR,,0.00,WeatherDisplay:10.37,2013-02-02 03:18:00,
2013-02-01 21:19:00,25.0,18.5,30.32,WSW,247,5.6,9.2,76,0.00,CLR,,0.00,WeatherDisplay:10.37,2013-02-02 03:19:00,
2013-02-01 21:20:00,25.0,18.8,30.32,SSW,202,6.2,10.4,77,0.00,CLR,,0.00,WeatherDisplay:10.37,2013-02-02 03:20:00,
2013-02-01 21:21:00,25.0,18.8,30.32,SSW,202,6.2,10.4,77,0.00,CLR,,0.00,WeatherDisplay:10.37,2013-02-02 03:21:00,
2013-02-01 21:23:00,25.0,18.5,30.32,SW,225,6.4,10.0,76,0.00,CLR,,0.00,WeatherDisplay:10.37,2013-02-02 03:23:00,
2013-02-01 21:24:00,25.0,18.8,30.32,WSW,247,6.8,10.4,77,0.00,CLR,,0.00,WeatherDisplay:10.37,2013-02-02 03:24:00,
2013-02-01 21:25:00,25.0,18.8,30.32,SW,225,6.9,10.4,77,0.00,CLR,,0.00,WeatherDisplay:10.37,2013-02-02 03:25:00,
2013-02-01 21:26:00,25.0,19.1,30.32,WNW,292,6.2,7.0,78,0.00,CLR,,0.00,WeatherDisplay:10.37,2013-02-02 03:26:00,
2013-02-01 21:28:00,25.0,19.1,30.32,SW,225,7.7,10.4,78,0.00,CLR,,0.00,WeatherDisplay:10.37,2013-02-02 03:28:00,
2013-02-01 21:29:00,25.0,19.1,30.32,WSW,247,7.8,11.5,78,0.00,CLR,,0.00,WeatherDisplay:10.37,2013-02-02 03:29:00,
2013-02-01 21:30:00,25.0,19.1,30.32,SSW,202,7.6,10.4,78,0.00,CLR,,0.00,WeatherDisplay:10.37,2013-02-02 03:30:00,
2013-02-01 21:31:00,25.0,19.1,30.32,SSW,202,6.4,15.0,78,0.00,CLR,,0.00,WeatherDisplay:10.37,2013-02-02 03:31:00,
2013-02-01 21:33:00,25.0,19.1,30.33,South,180,7.8,10.4,78,0.00,CLR,,0.00,WeatherDisplay:10.37,2013-02-02 03:33:00,
2013-02-01 21:34:00,25.0,19.1,30.33,NW,315,4.4,12.7,78,0.00,CLR,,0.00,WeatherDisplay:10.37,2013-02-02 03:34:00,
2013-02-01 21:35:00,25.0,19.1,30.33,SSW,202,5.2,8.1,78,0.00,CLR,,0.00,WeatherDisplay:10.37,2013-02-02 03:35:00,
2013-02-01 21:37:00,25.0,19.1,30.33,SSE,157,4.6,8.1,78,0.00,CLR,,0.00,WeatherDisplay:10.37,2013-02-02 03:37:00,
2013-02-01 21:38:00,25.0,19.1,30.33,WSW,247,6.0,14.0,78,0.00,CLR,,0.00,WeatherDisplay:10.37,2013-02-02 03:38:00,
2013-02-01 21:39:00,25.0,19.1,30.33,WSW,247,10.6,15.0,78,0.00,CLR,,0.00,WeatherDisplay:10.37,2013-02-02 03:39:00,
2013-02-01 21:40:00,25.0,19.1,30.33,WSW,247,10.4,13.0,78,0.00,CLR,,0.00,WeatherDisplay:10.37,2013-02-02 03:40:00,
2013-02-01 21:42:00,25.0,19.1,30.33,South,180,6.9,10.4,78,0.00,CLR,,0.00,WeatherDisplay:10.37,2013-02-02 03:42:00,
2013-02-01 21:43:00,25.0,19.1,30.34,WSW,247,5.1,10.4,78,0.00,CLR,,0.00,WeatherDisplay:10.37,2013-02-02 03:43:00,
2013-02-01 21:44:00,25.0,19.1,30.34,West,270,5.6,9.2,78,0.00,CLR,,0.00,WeatherDisplay:10.37,2013-02-02 03:44:00,
2013-02-01 21:45:00,25.0,19.1,30.34,WSW,247,7.4,11.5,78,0.00,CLR,,0.00,WeatherDisplay:10.37,2013-02-02 03:45:00,
2013-02-01 21:47:00,25.0,19.4,30.34,WSW,247,6.6,15.0,79,0.00,CLR,,0.00,WeatherDisplay:10.37,2013-02-02 03:47:00,
2013-02-01 21:48:00,25.0,19.4,30.34,WSW,247,5.1,10.0,79,0.00,CLR,,0.00,WeatherDisplay:10.37,2013-02-02 03:48:00,
2013-02-01 21:49:00,25.0,19.4,30.34,WSW,247,7.8,10.4,79,0.00,CLR,,0.00,WeatherDisplay:10.37,2013-02-02 03:49:00,
2013-02-01 21:50:00,25.0,19.4,30.34,SW,225,3.1,10.4,79,0.00,CLR,,0.00,WeatherDisplay:10.37,2013-02-02 03:50:00,
2013-02-01 21:53:00,25.0,19.4,30.34,SW,225,7.6,11.5,79,0.00,CLR,,0.00,WeatherDisplay:10.37,2013-02-02 03:53:00,
2013-02-01 21:54:00,24.0,18.4,30.34,SSW,202,3.4,11.5,79,0.00,CLR,,0.00,WeatherDisplay:10.37,2013-02-02 03:54:00,
2013-02-01 21:55:00,24.0,18.4,30.34,SW,225,6.9,10.4,79,0.00,CLR,,0.00,WeatherDisplay:10.37,2013-02-02 03:55:00,
2013-02-01 21:58:00,24.0,18.4,30.34,SSW,202,5.4,11.5,79,0.00,CLR,,0.00,WeatherDisplay:10.37,2013-02-02 03:58:00,
2013-02-01 21:59:00,24.0,18.4,30.34,SSW,202,6.7,10.4,79,0.00,CLR,,0.00,WeatherDisplay:10.37,2013-02-02 03:59:00,
2013-02-01 22:00:00,24.0,18.4,30.34,SW,225,3.2,9.2,79,0.00,CLR,,0.00,WeatherDisplay:10.37,2013-02-02 04:00:00,
2013-02-01 22:03:00,24.0,18.4,30.34,SW,225,6.2,9.2,79,0.00,CLR,,0.00,WeatherDisplay:10.37,2013-02-02 04:03:00,
2013-02-01 22:05:00,24.0,18.7,30.34,WSW,247,5.3,8.1,80,0.00,CLR,,0.00,WeatherDisplay:10.37,2013-02-02 04:05:00,
2013-02-01 22:08:00,24.0,18.7,30.34,West,270,6.0,9.2,80,0.00,CLR,,0.00,WeatherDisplay:10.37,2013-02-02 04:08:00,
2013-02-01 22:10:00,24.0,19.0,30.34,WSW,247,3.7,10.4,81,0.00,CLR,,0.00,WeatherDisplay:10.37,2013-02-02 04:10:00,
2013-02-01 22:13:00,24.0,18.7,30.35,WSW,247,4.9,6.0,80,0.00,CLR,,0.00,WeatherDisplay:10.37,2013-02-02 04:13:00,
2013-02-01 22:14:00,24.0,18.7,30.35,WSW,247,5.1,6.0,80,0.00,CLR,,0.00,WeatherDisplay:10.37,2013-02-02 04:14:00,
2013-02-01 22:15:00,25.0,19.7,30.35,WSW,247,6.6,9.0,80,0.00,CLR,,0.00,WeatherDisplay:10.37,2013-02-02 04:15:00,
2013-02-01 22:18:00,25.0,19.7,30.35,SSW,202,6.0,10.4,80,0.00,CLR,,0.00,WeatherDisplay:10.37,2013-02-02 04:18:00,
2013-02-01 22:19:00,25.0,19.7,30.35,SW,225,5.8,10.4,80,0.00,CLR,,0.00,WeatherDisplay:10.37,2013-02-02 04:19:00,
2013-02-01 22:20:00,25.0,19.7,30.35,SW,225,5.3,8.1,80,0.00,CLR,,0.00,WeatherDisplay:10.37,2013-02-02 04:20:00,
2013-02-01 22:24:00,25.0,19.7,30.35,SSW,202,5.4,6.9,80,0.00,CLR,,0.00,WeatherDisplay:10.37,2013-02-02 04:24:00,
2013-02-01 22:25:00,25.0,19.4,30.35,SSW,202,8.2,11.5,79,0.00,CLR,,0.00,WeatherDisplay:10.37,2013-02-02 04:25:00,
2013-02-01 22:29:00,25.0,19.4,30.35,WSW,247,5.9,6.9,79,0.00,CLR,,0.00,WeatherDisplay:10.37,2013-02-02 04:29:00,
2013-02-01 22:30:00,25.0,19.4,30.35,SSW,202,4.3,8.0,79,0.00,CLR,,0.00,WeatherDisplay:10.37,2013-02-02 04:30:00,
2013-02-01 22:34:00,25.0,20.0,30.34,SW,225,5.0,7.0,81,0.00,CLR,,0.00,WeatherDisplay:10.37,2013-02-02 04:34:00,
2013-02-01 22:36:00,25.0,19.7,30.34,SSW,202,4.4,8.0,80,0.00,CLR,,0.00,WeatherDisplay:10.37,2013-02-02 04:36:00,
2013-02-01 22:39:00,25.0,20.0,30.34,SSW,202,3.4,5.8,81,0.00,CLR,,0.00,WeatherDisplay:10.37,2013-02-02 04:39:00,
2013-02-01 22:41:00,25.0,20.0,30.34,SSW,202,1.6,5.8,81,0.00,CLR,,0.00,WeatherDisplay:10.37,2013-02-02 04:41:00,
2013-02-01 22:44:00,25.0,20.0,30.34,SSW,202,3.0,9.2,81,0.00,CLR,,0.00,WeatherDisplay:10.37,2013-02-02 04:44:00,
2013-02-01 22:46:00,25.0,20.0,30.34,SSW,202,5.8,9.2,81,0.00,CLR,,0.00,WeatherDisplay:10.37,2013-02-02 04:46:00,
2013-02-01 22:49:00,25.0,20.0,30.34,NW,315,3.4,9.2,81,0.00,CLR,,0.00,WeatherDisplay:10.37,2013-02-02 04:49:00,
2013-02-01 22:51:00,25.0,20.0,30.34,SSW,202,4.9,6.9,81,0.00,CLR,,0.00,WeatherDisplay:10.37,2013-02-02 04:51:00,
2013-02-01 22:54:00,25.0,20.0,30.33,WSW,247,3.5,8.1,81,0.00,CLR,,0.00,WeatherDisplay:10.37,2013-02-02 04:54:00,
2013-02-01 22:55:00,25.0,20.0,30.33,SSW,202,5.0,8.1,81,0.00,CLR,,0.00,WeatherDisplay:10.37,2013-02-02 04:55:00,
2013-02-01 22:56:00,25.0,20.3,30.33,WSW,247,3.2,4.6,82,0.00,CLR,,0.00,WeatherDisplay:10.37,2013-02-02 04:56:00,
2013-02-01 22:59:00,25.0,20.3,30.33,SSW,202,3.4,5.8,82,0.00,CLR,,0.00,WeatherDisplay:10.37,2013-02-02 04:59:00,
2013-02-01 23:01:00,25.0,20.3,30.33,WSW,247,6.4,8.1,82,0.00,CLR,,0.00,WeatherDisplay:10.37,2013-02-02 05:01:00,
2013-02-01 23:06:00,25.0,20.0,30.33,WSW,247,3.4,10.4,81,0.00,CLR,,0.00,WeatherDisplay:10.37,2013-02-02 05:06:00,
2013-02-01 23:07:00,25.0,20.3,30.33,WSW,247,7.1,15.0,82,0.00,CLR,,0.00,WeatherDisplay:10.37,2013-02-02 05:07:00,
2013-02-01 23:11:00,25.0,20.3,30.33,WSW,247,8.1,13.0,82,0.00,CLR,,0.00,WeatherDisplay:10.37,2013-02-02 05:11:00,
2013-02-01 23:12:00,25.0,20.3,30.33,WSW,247,9.6,12.7,82,0.00,CLR,,0.00,WeatherDisplay:10.37,2013-02-02 05:12:00,
2013-02-01 23:16:00,25.0,20.3,30.33,WSW,247,6.9,9.2,82,0.00,CLR,,0.00,WeatherDisplay:10.37,2013-02-02 05:16:00,
2013-02-01 23:17:00,25.0,20.6,30.33,WSW,247,8.5,12.0,83,0.00,CLR,,0.00,WeatherDisplay:10.37,2013-02-02 05:17:00,
2013-02-01 23:21:00,25.0,20.6,30.33,West,270,8.2,11.5,83,0.00,CLR,,0.00,WeatherDisplay:10.37,2013-02-02 05:21:00,
2013-02-01 23:22:00,25.0,20.6,30.33,West,270,7.6,10.4,83,0.00,CLR,,0.00,WeatherDisplay:10.37,2013-02-02 05:22:00,
2013-02-01 23:26:00,25.0,20.6,30.33,WSW,247,6.8,10.4,83,0.00,CLR,,0.00,WeatherDisplay:10.37,2013-02-02 05:26:00,
2013-02-01 23:27:00,25.0,20.6,30.33,WSW,247,6.5,9.2,83,0.00,CLR,,0.00,WeatherDisplay:10.37,2013-02-02 05:27:00,
2013-02-01 23:31:00,25.0,20.8,30.33,WSW,247,7.2,10.4,84,0.00,CLR,,0.00,WeatherDisplay:10.37,2013-02-02 05:31:00,
2013-02-01 23:32:00,25.0,20.8,30.33,WSW,247,6.6,9.2,84,0.00,CLR,,0.00,WeatherDisplay:10.37,2013-02-02 05:32:00,
2013-02-01 23:36:00,25.0,20.8,30.33,WSW,247,8.9,11.5,84,0.00,CLR,,0.00,WeatherDisplay:10.37,2013-02-02 05:36:00,
2013-02-01 23:37:00,25.0,20.8,30.33,WSW,247,8.5,11.5,84,0.00,CLR,,0.00,WeatherDisplay:10.37,2013-02-02 05:37:00,
2013-02-01 23:41:00,25.0,20.8,30.33,WSW,247,10.0,13.8,84,0.00,CLR,,0.00,WeatherDisplay:10.37,2013-02-02 05:41:00,
2013-02-01 23:42:00,25.0,20.8,30.34,WSW,247,9.8,11.5,84,0.00,CLR,,0.00,WeatherDisplay:10.37,2013-02-02 05:42:00,
2013-02-01 23:46:00,25.0,21.1,30.34,WSW,247,10.8,12.7,85,0.00,CLR,,0.00,WeatherDisplay:10.37,2013-02-02 05:46:00,
2013-02-01 23:47:00,25.0,21.1,30.34,SW,225,8.7,12.7,85,0.00,CLR,,0.00,WeatherDisplay:10.37,2013-02-02 05:47:00,
2013-02-01 23:51:00,25.0,21.4,30.34,WSW,247,9.3,12.7,86,0.00,CLR,,0.00,WeatherDisplay:10.37,2013-02-02 05:51:00,
2013-02-01 23:52:00,25.0,21.4,30.34,WSW,247,8.0,12.7,86,0.00,CLR,,0.00,WeatherDisplay:10.37,2013-02-02 05:52:00,
2013-02-01 23:56:00,25.0,21.4,30.34,WSW,247,8.5,11.5,86,0.00,CLR,,0.00,WeatherDisplay:10.37,2013-02-02 05:56:00,
2013-02-01 23:57:00,25.0,21.4,30.34,WSW,247,7.7,12.0,86,0.00,CLR,,0.00,WeatherDisplay:10.37,2013-02-02 05:57:00,